<?xml version="1.0" encoding="UTF-8" standalone="no" ?>
<gpx xmlns="http://www.topografix.com/GPX/1/1" xmlns:xsi="http://www.w3.org/2001/XMLSchema-instance" xsi:schemaLocation="http://www.topografix.com/GPX/1/1 http://www.topografix.com/GPX/1/1/gpx.xsd" version="1.1" creator="VisuGPX - https://www.visugpx.com">
  <metadata>
    <name>lundi 2025</name>
  </metadata>
  <wpt lat="45.19791" lon="0.35816">
    <ele>153.5</ele>
    <name><![CDATA[Ravitaillement]]></name>
  </wpt>
  <wpt lat="45.19792" lon="0.35814">
    <ele>153.2</ele>
    <name><![CDATA[Ravitaillement]]></name>
  </wpt>
  <trk>
    <name><![CDATA[lundi 61km]]></name>
    <extensions>
      <line xmlns="http://www.topografix.com/GPX/gpx_style/0/2">
        <color>1e00ff</color>
        <width>6</width>
          <extensions>
            <sens>1</sens>
          </extensions>
      </line>
    </extensions>
    <trkseg>
      <trkpt lat="45.24954" lon="0.33706">
        <ele>72</ele>
        <time>2025-04-16T07:02:52Z</time>
      </trkpt>
      <trkpt lat="45.24984" lon="0.337">
        <ele>72</ele>
        <time>2025-04-16T07:02:57Z</time>
      </trkpt>
      <trkpt lat="45.25077" lon="0.33681">
        <ele>70</ele>
        <time>2025-04-16T07:03:14Z</time>
      </trkpt>
      <trkpt lat="45.25073" lon="0.33623">
        <ele>71</ele>
        <time>2025-04-16T07:03:21Z</time>
      </trkpt>
      <trkpt lat="45.25076" lon="0.33593">
        <ele>72</ele>
        <time>2025-04-16T07:03:25Z</time>
      </trkpt>
      <trkpt lat="45.25437" lon="0.3365">
        <ele>69</ele>
        <time>2025-04-16T07:04:30Z</time>
      </trkpt>
      <trkpt lat="45.25452" lon="0.33655">
        <ele>70</ele>
        <time>2025-04-16T07:04:33Z</time>
      </trkpt>
      <trkpt lat="45.2553" lon="0.33667">
        <ele>70</ele>
        <time>2025-04-16T07:04:47Z</time>
      </trkpt>
      <trkpt lat="45.25536" lon="0.33672">
        <ele>70</ele>
        <time>2025-04-16T07:04:48Z</time>
      </trkpt>
      <trkpt lat="45.25539" lon="0.33679">
        <ele>69</ele>
        <time>2025-04-16T07:04:49Z</time>
      </trkpt>
      <trkpt lat="45.25541" lon="0.33708">
        <ele>69</ele>
        <time>2025-04-16T07:04:52Z</time>
      </trkpt>
      <trkpt lat="45.2555" lon="0.33766">
        <ele>68</ele>
        <time>2025-04-16T07:05:00Z</time>
      </trkpt>
      <trkpt lat="45.25549" lon="0.33787">
        <ele>67</ele>
        <time>2025-04-16T07:05:03Z</time>
      </trkpt>
      <trkpt lat="45.25547" lon="0.33806">
        <ele>67</ele>
        <time>2025-04-16T07:05:05Z</time>
      </trkpt>
      <trkpt lat="45.25514" lon="0.33974">
        <ele>64</ele>
        <time>2025-04-16T07:05:27Z</time>
      </trkpt>
      <trkpt lat="45.25513" lon="0.33978">
        <ele>64</ele>
        <time>2025-04-16T07:05:27Z</time>
      </trkpt>
      <trkpt lat="45.25512" lon="0.33984">
        <ele>64</ele>
        <time>2025-04-16T07:05:28Z</time>
      </trkpt>
      <trkpt lat="45.255" lon="0.34039">
        <ele>64</ele>
        <time>2025-04-16T07:05:35Z</time>
      </trkpt>
      <trkpt lat="45.25494" lon="0.34054">
        <ele>65</ele>
        <time>2025-04-16T07:05:37Z</time>
      </trkpt>
      <trkpt lat="45.25484" lon="0.34069">
        <ele>66</ele>
        <time>2025-04-16T07:05:40Z</time>
      </trkpt>
      <trkpt lat="45.25469" lon="0.34083">
        <ele>66</ele>
        <time>2025-04-16T07:05:43Z</time>
      </trkpt>
      <trkpt lat="45.25455" lon="0.34092">
        <ele>67</ele>
        <time>2025-04-16T07:05:46Z</time>
      </trkpt>
      <trkpt lat="45.25452" lon="0.34092">
        <ele>67</ele>
        <time>2025-04-16T07:05:47Z</time>
      </trkpt>
      <trkpt lat="45.25446" lon="0.34095">
        <ele>68</ele>
        <time>2025-04-16T07:05:48Z</time>
      </trkpt>
      <trkpt lat="45.25429" lon="0.34096">
        <ele>69</ele>
        <time>2025-04-16T07:05:51Z</time>
      </trkpt>
      <trkpt lat="45.25406" lon="0.34086">
        <ele>70</ele>
        <time>2025-04-16T07:05:55Z</time>
      </trkpt>
      <trkpt lat="45.25371" lon="0.34061">
        <ele>72</ele>
        <time>2025-04-16T07:06:02Z</time>
      </trkpt>
      <trkpt lat="45.25244" lon="0.34003">
        <ele>76</ele>
        <time>2025-04-16T07:06:26Z</time>
      </trkpt>
      <trkpt lat="45.25132" lon="0.33956">
        <ele>77</ele>
        <time>2025-04-16T07:06:46Z</time>
      </trkpt>
      <trkpt lat="45.25078" lon="0.33938">
        <ele>77</ele>
        <time>2025-04-16T07:06:56Z</time>
      </trkpt>
      <trkpt lat="45.25059" lon="0.33935">
        <ele>77</ele>
        <time>2025-04-16T07:07:00Z</time>
      </trkpt>
      <trkpt lat="45.25036" lon="0.33934">
        <ele>77</ele>
        <time>2025-04-16T07:07:04Z</time>
      </trkpt>
      <trkpt lat="45.25001" lon="0.33939">
        <ele>79</ele>
        <time>2025-04-16T07:07:10Z</time>
      </trkpt>
      <trkpt lat="45.24825" lon="0.3401">
        <ele>77</ele>
        <time>2025-04-16T07:07:43Z</time>
      </trkpt>
      <trkpt lat="45.24833" lon="0.34043">
        <ele>80</ele>
        <time>2025-04-16T07:07:47Z</time>
      </trkpt>
      <trkpt lat="45.24833" lon="0.34061">
        <ele>81</ele>
        <time>2025-04-16T07:07:49Z</time>
      </trkpt>
      <trkpt lat="45.2482" lon="0.34096">
        <ele>85</ele>
        <time>2025-04-16T07:07:54Z</time>
      </trkpt>
      <trkpt lat="45.24809" lon="0.34106">
        <ele>86</ele>
        <time>2025-04-16T07:07:57Z</time>
      </trkpt>
      <trkpt lat="45.24792" lon="0.34117">
        <ele>88</ele>
        <time>2025-04-16T07:08:00Z</time>
      </trkpt>
      <trkpt lat="45.24767" lon="0.34166">
        <ele>93</ele>
        <time>2025-04-16T07:08:07Z</time>
      </trkpt>
      <trkpt lat="45.24753" lon="0.34181">
        <ele>94</ele>
        <time>2025-04-16T07:08:11Z</time>
      </trkpt>
      <trkpt lat="45.24738" lon="0.34189">
        <ele>95</ele>
        <time>2025-04-16T07:08:13Z</time>
      </trkpt>
      <trkpt lat="45.2474" lon="0.34179">
        <ele>94</ele>
        <time>2025-04-16T07:08:15Z</time>
      </trkpt>
      <trkpt lat="45.24744" lon="0.34174">
        <ele>94</ele>
        <time>2025-04-16T07:08:16Z</time>
      </trkpt>
      <trkpt lat="45.2474" lon="0.34179">
        <ele>94</ele>
        <time>2025-04-16T07:08:17Z</time>
      </trkpt>
      <trkpt lat="45.24738" lon="0.34189">
        <ele>95</ele>
        <time>2025-04-16T07:08:18Z</time>
      </trkpt>
      <trkpt lat="45.24731" lon="0.34194">
        <ele>95</ele>
        <time>2025-04-16T07:08:19Z</time>
      </trkpt>
      <trkpt lat="45.247" lon="0.34244">
        <ele>100</ele>
        <time>2025-04-16T07:08:28Z</time>
      </trkpt>
      <trkpt lat="45.24692" lon="0.34263">
        <ele>102</ele>
        <time>2025-04-16T07:08:30Z</time>
      </trkpt>
      <trkpt lat="45.24691" lon="0.34272">
        <ele>103</ele>
        <time>2025-04-16T07:08:32Z</time>
      </trkpt>
      <trkpt lat="45.24694" lon="0.3429">
        <ele>105</ele>
        <time>2025-04-16T07:08:34Z</time>
      </trkpt>
      <trkpt lat="45.2472" lon="0.34346">
        <ele>108</ele>
        <time>2025-04-16T07:08:42Z</time>
      </trkpt>
      <trkpt lat="45.24726" lon="0.34365">
        <ele>110</ele>
        <time>2025-04-16T07:08:45Z</time>
      </trkpt>
      <trkpt lat="45.24723" lon="0.34389">
        <ele>112</ele>
        <time>2025-04-16T07:08:48Z</time>
      </trkpt>
      <trkpt lat="45.24713" lon="0.34415">
        <ele>115</ele>
        <time>2025-04-16T07:08:52Z</time>
      </trkpt>
      <trkpt lat="45.24699" lon="0.34444">
        <ele>116</ele>
        <time>2025-04-16T07:08:56Z</time>
      </trkpt>
      <trkpt lat="45.24694" lon="0.3446">
        <ele>116</ele>
        <time>2025-04-16T07:08:58Z</time>
      </trkpt>
      <trkpt lat="45.2469" lon="0.34479">
        <ele>117</ele>
        <time>2025-04-16T07:09:01Z</time>
      </trkpt>
      <trkpt lat="45.24688" lon="0.34508">
        <ele>118</ele>
        <time>2025-04-16T07:09:04Z</time>
      </trkpt>
      <trkpt lat="45.24687" lon="0.34533">
        <ele>118</ele>
        <time>2025-04-16T07:09:08Z</time>
      </trkpt>
      <trkpt lat="45.24685" lon="0.34551">
        <ele>118</ele>
        <time>2025-04-16T07:09:10Z</time>
      </trkpt>
      <trkpt lat="45.24674" lon="0.34633">
        <ele>119</ele>
        <time>2025-04-16T07:09:20Z</time>
      </trkpt>
      <trkpt lat="45.24664" lon="0.34689">
        <ele>119</ele>
        <time>2025-04-16T07:09:27Z</time>
      </trkpt>
      <trkpt lat="45.2465" lon="0.34736">
        <ele>118</ele>
        <time>2025-04-16T07:09:34Z</time>
      </trkpt>
      <trkpt lat="45.24622" lon="0.34794">
        <ele>118</ele>
        <time>2025-04-16T07:09:43Z</time>
      </trkpt>
      <trkpt lat="45.24557" lon="0.34949">
        <ele>121</ele>
        <time>2025-04-16T07:10:05Z</time>
      </trkpt>
      <trkpt lat="45.24541" lon="0.35017">
        <ele>123</ele>
        <time>2025-04-16T07:10:14Z</time>
      </trkpt>
      <trkpt lat="45.24519" lon="0.35133">
        <ele>126</ele>
        <time>2025-04-16T07:10:29Z</time>
      </trkpt>
      <trkpt lat="45.24505" lon="0.352">
        <ele>128</ele>
        <time>2025-04-16T07:10:38Z</time>
      </trkpt>
      <trkpt lat="45.24453" lon="0.35389">
        <ele>131</ele>
        <time>2025-04-16T07:11:03Z</time>
      </trkpt>
      <trkpt lat="45.24435" lon="0.35502">
        <ele>135</ele>
        <time>2025-04-16T07:11:18Z</time>
      </trkpt>
      <trkpt lat="45.24434" lon="0.35515">
        <ele>135</ele>
        <time>2025-04-16T07:11:20Z</time>
      </trkpt>
      <trkpt lat="45.24395" lon="0.35656">
        <ele>134</ele>
        <time>2025-04-16T07:11:39Z</time>
      </trkpt>
      <trkpt lat="45.24397" lon="0.35668">
        <ele>134</ele>
        <time>2025-04-16T07:11:40Z</time>
      </trkpt>
      <trkpt lat="45.24391" lon="0.3571">
        <ele>134</ele>
        <time>2025-04-16T07:11:46Z</time>
      </trkpt>
      <trkpt lat="45.24383" lon="0.35745">
        <ele>134</ele>
        <time>2025-04-16T07:11:50Z</time>
      </trkpt>
      <trkpt lat="45.24374" lon="0.35769">
        <ele>133</ele>
        <time>2025-04-16T07:11:54Z</time>
      </trkpt>
      <trkpt lat="45.24344" lon="0.35833">
        <ele>132</ele>
        <time>2025-04-16T07:12:03Z</time>
      </trkpt>
      <trkpt lat="45.24304" lon="0.35912">
        <ele>132</ele>
        <time>2025-04-16T07:12:15Z</time>
      </trkpt>
      <trkpt lat="45.24227" lon="0.36052">
        <ele>135</ele>
        <time>2025-04-16T07:12:38Z</time>
      </trkpt>
      <trkpt lat="45.24143" lon="0.36216">
        <ele>142</ele>
        <time>2025-04-16T07:13:03Z</time>
      </trkpt>
      <trkpt lat="45.24098" lon="0.36293">
        <ele>142</ele>
        <time>2025-04-16T07:13:16Z</time>
      </trkpt>
      <trkpt lat="45.24043" lon="0.3636">
        <ele>142</ele>
        <time>2025-04-16T07:13:28Z</time>
      </trkpt>
      <trkpt lat="45.2399" lon="0.36433">
        <ele>144</ele>
        <time>2025-04-16T07:13:42Z</time>
      </trkpt>
      <trkpt lat="45.23892" lon="0.36665">
        <ele>144</ele>
        <time>2025-04-16T07:14:16Z</time>
      </trkpt>
      <trkpt lat="45.23877" lon="0.36705">
        <ele>143</ele>
        <time>2025-04-16T07:14:21Z</time>
      </trkpt>
      <trkpt lat="45.23857" lon="0.36749">
        <ele>143</ele>
        <time>2025-04-16T07:14:28Z</time>
      </trkpt>
      <trkpt lat="45.23804" lon="0.36884">
        <ele>142</ele>
        <time>2025-04-16T07:14:47Z</time>
      </trkpt>
      <trkpt lat="45.23797" lon="0.36902">
        <ele>141</ele>
        <time>2025-04-16T07:14:50Z</time>
      </trkpt>
      <trkpt lat="45.23785" lon="0.36923">
        <ele>141</ele>
        <time>2025-04-16T07:14:53Z</time>
      </trkpt>
      <trkpt lat="45.23631" lon="0.37152">
        <ele>141</ele>
        <time>2025-04-16T07:15:33Z</time>
      </trkpt>
      <trkpt lat="45.23619" lon="0.37169">
        <ele>141</ele>
        <time>2025-04-16T07:15:36Z</time>
      </trkpt>
      <trkpt lat="45.23385" lon="0.37246">
        <ele>144</ele>
        <time>2025-04-16T07:16:19Z</time>
      </trkpt>
      <trkpt lat="45.2336" lon="0.37262">
        <ele>144</ele>
        <time>2025-04-16T07:16:23Z</time>
      </trkpt>
      <trkpt lat="45.23328" lon="0.37278">
        <ele>145</ele>
        <time>2025-04-16T07:16:29Z</time>
      </trkpt>
      <trkpt lat="45.23246" lon="0.37325">
        <ele>149</ele>
        <time>2025-04-16T07:16:45Z</time>
      </trkpt>
      <trkpt lat="45.23228" lon="0.37327">
        <ele>149</ele>
        <time>2025-04-16T07:16:48Z</time>
      </trkpt>
      <trkpt lat="45.23206" lon="0.37326">
        <ele>150</ele>
        <time>2025-04-16T07:16:52Z</time>
      </trkpt>
      <trkpt lat="45.22981" lon="0.37189">
        <ele>153</ele>
        <time>2025-04-16T07:17:36Z</time>
      </trkpt>
      <trkpt lat="45.229" lon="0.37142">
        <ele>156</ele>
        <time>2025-04-16T07:17:51Z</time>
      </trkpt>
      <trkpt lat="45.22865" lon="0.37126">
        <ele>158</ele>
        <time>2025-04-16T07:17:58Z</time>
      </trkpt>
      <trkpt lat="45.22844" lon="0.37121">
        <ele>158</ele>
        <time>2025-04-16T07:18:02Z</time>
      </trkpt>
      <trkpt lat="45.22825" lon="0.37123">
        <ele>158</ele>
        <time>2025-04-16T07:18:05Z</time>
      </trkpt>
      <trkpt lat="45.22763" lon="0.37154">
        <ele>157</ele>
        <time>2025-04-16T07:18:17Z</time>
      </trkpt>
      <trkpt lat="45.22665" lon="0.37222">
        <ele>155</ele>
        <time>2025-04-16T07:18:36Z</time>
      </trkpt>
      <trkpt lat="45.22637" lon="0.37249">
        <ele>155</ele>
        <time>2025-04-16T07:18:42Z</time>
      </trkpt>
      <trkpt lat="45.22612" lon="0.37279">
        <ele>155</ele>
        <time>2025-04-16T07:18:48Z</time>
      </trkpt>
      <trkpt lat="45.22408" lon="0.37573">
        <ele>160</ele>
        <time>2025-04-16T07:19:40Z</time>
      </trkpt>
      <trkpt lat="45.224" lon="0.37587">
        <ele>160</ele>
        <time>2025-04-16T07:19:42Z</time>
      </trkpt>
      <trkpt lat="45.22371" lon="0.37612">
        <ele>159</ele>
        <time>2025-04-16T07:19:48Z</time>
      </trkpt>
      <trkpt lat="45.22288" lon="0.37701">
        <ele>156</ele>
        <time>2025-04-16T07:20:07Z</time>
      </trkpt>
      <trkpt lat="45.22203" lon="0.37787">
        <ele>157</ele>
        <time>2025-04-16T07:20:25Z</time>
      </trkpt>
      <trkpt lat="45.22142" lon="0.37835">
        <ele>158</ele>
        <time>2025-04-16T07:20:38Z</time>
      </trkpt>
      <trkpt lat="45.22092" lon="0.37856">
        <ele>157</ele>
        <time>2025-04-16T07:20:47Z</time>
      </trkpt>
      <trkpt lat="45.21954" lon="0.37902">
        <ele>160</ele>
        <time>2025-04-16T07:21:12Z</time>
      </trkpt>
      <trkpt lat="45.21778" lon="0.37942">
        <ele>171</ele>
        <time>2025-04-16T07:21:44Z</time>
      </trkpt>
      <trkpt lat="45.21698" lon="0.37951">
        <ele>175</ele>
        <time>2025-04-16T07:21:58Z</time>
      </trkpt>
      <trkpt lat="45.21668" lon="0.37946">
        <ele>176</ele>
        <time>2025-04-16T07:22:03Z</time>
      </trkpt>
      <trkpt lat="45.21641" lon="0.37934">
        <ele>176</ele>
        <time>2025-04-16T07:22:08Z</time>
      </trkpt>
      <trkpt lat="45.21599" lon="0.37902">
        <ele>180</ele>
        <time>2025-04-16T07:22:17Z</time>
      </trkpt>
      <trkpt lat="45.21562" lon="0.3789">
        <ele>183</ele>
        <time>2025-04-16T07:22:24Z</time>
      </trkpt>
      <trkpt lat="45.21514" lon="0.37907">
        <ele>186</ele>
        <time>2025-04-16T07:22:33Z</time>
      </trkpt>
      <trkpt lat="45.21468" lon="0.37902">
        <ele>185</ele>
        <time>2025-04-16T07:22:41Z</time>
      </trkpt>
      <trkpt lat="45.21434" lon="0.37875">
        <ele>186</ele>
        <time>2025-04-16T07:22:48Z</time>
      </trkpt>
      <trkpt lat="45.2141" lon="0.37836">
        <ele>192</ele>
        <time>2025-04-16T07:22:54Z</time>
      </trkpt>
      <trkpt lat="45.21383" lon="0.37803">
        <ele>194</ele>
        <time>2025-04-16T07:23:00Z</time>
      </trkpt>
      <trkpt lat="45.21333" lon="0.37782">
        <ele>194</ele>
        <time>2025-04-16T07:23:10Z</time>
      </trkpt>
      <trkpt lat="45.21285" lon="0.37777">
        <ele>195</ele>
        <time>2025-04-16T07:23:18Z</time>
      </trkpt>
      <trkpt lat="45.21231" lon="0.37797">
        <ele>195</ele>
        <time>2025-04-16T07:23:28Z</time>
      </trkpt>
      <trkpt lat="45.21176" lon="0.37826">
        <ele>193</ele>
        <time>2025-04-16T07:23:39Z</time>
      </trkpt>
      <trkpt lat="45.21107" lon="0.37854">
        <ele>192</ele>
        <time>2025-04-16T07:23:51Z</time>
      </trkpt>
      <trkpt lat="45.20989" lon="0.37898">
        <ele>189</ele>
        <time>2025-04-16T07:24:13Z</time>
      </trkpt>
      <trkpt lat="45.20897" lon="0.37924">
        <ele>190</ele>
        <time>2025-04-16T07:24:30Z</time>
      </trkpt>
      <trkpt lat="45.20745" lon="0.37932">
        <ele>190</ele>
        <time>2025-04-16T07:24:57Z</time>
      </trkpt>
      <trkpt lat="45.20592" lon="0.37991">
        <ele>188</ele>
        <time>2025-04-16T07:25:25Z</time>
      </trkpt>
      <trkpt lat="45.2056" lon="0.37992">
        <ele>187</ele>
        <time>2025-04-16T07:25:31Z</time>
      </trkpt>
      <trkpt lat="45.20454" lon="0.37986">
        <ele>187</ele>
        <time>2025-04-16T07:25:50Z</time>
      </trkpt>
      <trkpt lat="45.20405" lon="0.37994">
        <ele>189</ele>
        <time>2025-04-16T07:25:58Z</time>
      </trkpt>
      <trkpt lat="45.20368" lon="0.38006">
        <ele>190</ele>
        <time>2025-04-16T07:26:05Z</time>
      </trkpt>
      <trkpt lat="45.20117" lon="0.38096">
        <ele>194</ele>
        <time>2025-04-16T07:26:51Z</time>
      </trkpt>
      <trkpt lat="45.20085" lon="0.38102">
        <ele>195</ele>
        <time>2025-04-16T07:26:57Z</time>
      </trkpt>
      <trkpt lat="45.20045" lon="0.38104">
        <ele>193</ele>
        <time>2025-04-16T07:27:04Z</time>
      </trkpt>
      <trkpt lat="45.20002" lon="0.38119">
        <ele>192</ele>
        <time>2025-04-16T07:27:12Z</time>
      </trkpt>
      <trkpt lat="45.19972" lon="0.38137">
        <ele>191</ele>
        <time>2025-04-16T07:27:18Z</time>
      </trkpt>
      <trkpt lat="45.19963" lon="0.38141">
        <ele>191</ele>
        <time>2025-04-16T07:27:20Z</time>
      </trkpt>
      <trkpt lat="45.19959" lon="0.38141">
        <ele>191</ele>
        <time>2025-04-16T07:27:20Z</time>
      </trkpt>
      <trkpt lat="45.19951" lon="0.38155">
        <ele>190</ele>
        <time>2025-04-16T07:27:22Z</time>
      </trkpt>
      <trkpt lat="45.19928" lon="0.38186">
        <ele>189</ele>
        <time>2025-04-16T07:27:28Z</time>
      </trkpt>
      <trkpt lat="45.19922" lon="0.38199">
        <ele>189</ele>
        <time>2025-04-16T07:27:30Z</time>
      </trkpt>
      <trkpt lat="45.19915" lon="0.38225">
        <ele>188</ele>
        <time>2025-04-16T07:27:34Z</time>
      </trkpt>
      <trkpt lat="45.19902" lon="0.38443">
        <ele>188</ele>
        <time>2025-04-16T07:28:01Z</time>
      </trkpt>
      <trkpt lat="45.19904" lon="0.38515">
        <ele>188</ele>
        <time>2025-04-16T07:28:10Z</time>
      </trkpt>
      <trkpt lat="45.19906" lon="0.38563">
        <ele>188</ele>
        <time>2025-04-16T07:28:16Z</time>
      </trkpt>
      <trkpt lat="45.19918" lon="0.38697">
        <ele>189</ele>
        <time>2025-04-16T07:28:33Z</time>
      </trkpt>
      <trkpt lat="45.19923" lon="0.38728">
        <ele>189</ele>
        <time>2025-04-16T07:28:37Z</time>
      </trkpt>
      <trkpt lat="45.1993" lon="0.38753">
        <ele>190</ele>
        <time>2025-04-16T07:28:40Z</time>
      </trkpt>
      <trkpt lat="45.19938" lon="0.38773">
        <ele>189</ele>
        <time>2025-04-16T07:28:43Z</time>
      </trkpt>
      <trkpt lat="45.2002" lon="0.38922">
        <ele>190</ele>
        <time>2025-04-16T07:29:07Z</time>
      </trkpt>
      <trkpt lat="45.20043" lon="0.38876">
        <ele>187</ele>
        <time>2025-04-16T07:29:14Z</time>
      </trkpt>
      <trkpt lat="45.2002" lon="0.38922">
        <ele>190</ele>
        <time>2025-04-16T07:29:21Z</time>
      </trkpt>
      <trkpt lat="45.20077" lon="0.39025">
        <ele>191</ele>
        <time>2025-04-16T07:29:38Z</time>
      </trkpt>
      <trkpt lat="45.20087" lon="0.39046">
        <ele>192</ele>
        <time>2025-04-16T07:29:41Z</time>
      </trkpt>
      <trkpt lat="45.20092" lon="0.39065">
        <ele>192</ele>
        <time>2025-04-16T07:29:43Z</time>
      </trkpt>
      <trkpt lat="45.20092" lon="0.39089">
        <ele>193</ele>
        <time>2025-04-16T07:29:46Z</time>
      </trkpt>
      <trkpt lat="45.20089" lon="0.39107">
        <ele>194</ele>
        <time>2025-04-16T07:29:49Z</time>
      </trkpt>
      <trkpt lat="45.20085" lon="0.39118">
        <ele>194</ele>
        <time>2025-04-16T07:29:50Z</time>
      </trkpt>
      <trkpt lat="45.20095" lon="0.3912">
        <ele>193</ele>
        <time>2025-04-16T07:29:52Z</time>
      </trkpt>
      <trkpt lat="45.20113" lon="0.39128">
        <ele>192</ele>
        <time>2025-04-16T07:29:55Z</time>
      </trkpt>
      <trkpt lat="45.20189" lon="0.39223">
        <ele>188</ele>
        <time>2025-04-16T07:30:13Z</time>
      </trkpt>
      <trkpt lat="45.20226" lon="0.39273">
        <ele>187</ele>
        <time>2025-04-16T07:30:22Z</time>
      </trkpt>
      <trkpt lat="45.2024" lon="0.39288">
        <ele>187</ele>
        <time>2025-04-16T07:30:25Z</time>
      </trkpt>
      <trkpt lat="45.20258" lon="0.39303">
        <ele>186</ele>
        <time>2025-04-16T07:30:29Z</time>
      </trkpt>
      <trkpt lat="45.20332" lon="0.39342">
        <ele>182</ele>
        <time>2025-04-16T07:30:43Z</time>
      </trkpt>
      <trkpt lat="45.20457" lon="0.39401">
        <ele>177</ele>
        <time>2025-04-16T07:31:07Z</time>
      </trkpt>
      <trkpt lat="45.20535" lon="0.39423">
        <ele>175</ele>
        <time>2025-04-16T07:31:21Z</time>
      </trkpt>
      <trkpt lat="45.20569" lon="0.39427">
        <ele>173</ele>
        <time>2025-04-16T07:31:27Z</time>
      </trkpt>
      <trkpt lat="45.20737" lon="0.39384">
        <ele>160</ele>
        <time>2025-04-16T07:31:57Z</time>
      </trkpt>
      <trkpt lat="45.20769" lon="0.39381">
        <ele>159</ele>
        <time>2025-04-16T07:32:03Z</time>
      </trkpt>
      <trkpt lat="45.20804" lon="0.39387">
        <ele>158</ele>
        <time>2025-04-16T07:32:09Z</time>
      </trkpt>
      <trkpt lat="45.20831" lon="0.39397">
        <ele>157</ele>
        <time>2025-04-16T07:32:14Z</time>
      </trkpt>
      <trkpt lat="45.20858" lon="0.39424">
        <ele>156</ele>
        <time>2025-04-16T07:32:20Z</time>
      </trkpt>
      <trkpt lat="45.20923" lon="0.39443">
        <ele>148</ele>
        <time>2025-04-16T07:32:32Z</time>
      </trkpt>
      <trkpt lat="45.21021" lon="0.39461">
        <ele>143</ele>
        <time>2025-04-16T07:32:50Z</time>
      </trkpt>
      <trkpt lat="45.21107" lon="0.39467">
        <ele>138</ele>
        <time>2025-04-16T07:33:05Z</time>
      </trkpt>
      <trkpt lat="45.21278" lon="0.39468">
        <ele>122</ele>
        <time>2025-04-16T07:33:35Z</time>
      </trkpt>
      <trkpt lat="45.21365" lon="0.39479">
        <ele>114</ele>
        <time>2025-04-16T07:33:51Z</time>
      </trkpt>
      <trkpt lat="45.21503" lon="0.39522">
        <ele>105</ele>
        <time>2025-04-16T07:34:16Z</time>
      </trkpt>
      <trkpt lat="45.2153" lon="0.3954">
        <ele>104</ele>
        <time>2025-04-16T07:34:21Z</time>
      </trkpt>
      <trkpt lat="45.21632" lon="0.39517">
        <ele>102</ele>
        <time>2025-04-16T07:34:40Z</time>
      </trkpt>
      <trkpt lat="45.21741" lon="0.395">
        <ele>98</ele>
        <time>2025-04-16T07:34:59Z</time>
      </trkpt>
      <trkpt lat="45.21834" lon="0.39513">
        <ele>99</ele>
        <time>2025-04-16T07:35:16Z</time>
      </trkpt>
      <trkpt lat="45.21913" lon="0.39553">
        <ele>100</ele>
        <time>2025-04-16T07:35:31Z</time>
      </trkpt>
      <trkpt lat="45.22001" lon="0.39609">
        <ele>102</ele>
        <time>2025-04-16T07:35:48Z</time>
      </trkpt>
      <trkpt lat="45.22057" lon="0.3963">
        <ele>102</ele>
        <time>2025-04-16T07:35:58Z</time>
      </trkpt>
      <trkpt lat="45.22131" lon="0.39641">
        <ele>101</ele>
        <time>2025-04-16T07:36:11Z</time>
      </trkpt>
      <trkpt lat="45.22205" lon="0.39673">
        <ele>99</ele>
        <time>2025-04-16T07:36:25Z</time>
      </trkpt>
      <trkpt lat="45.22368" lon="0.39795">
        <ele>98</ele>
        <time>2025-04-16T07:36:58Z</time>
      </trkpt>
      <trkpt lat="45.22388" lon="0.39819">
        <ele>98</ele>
        <time>2025-04-16T07:37:03Z</time>
      </trkpt>
      <trkpt lat="45.22409" lon="0.39874">
        <ele>97</ele>
        <time>2025-04-16T07:37:10Z</time>
      </trkpt>
      <trkpt lat="45.22417" lon="0.39887">
        <ele>96</ele>
        <time>2025-04-16T07:37:13Z</time>
      </trkpt>
      <trkpt lat="45.22423" lon="0.39896">
        <ele>96</ele>
        <time>2025-04-16T07:37:14Z</time>
      </trkpt>
      <trkpt lat="45.22477" lon="0.39973">
        <ele>91</ele>
        <time>2025-04-16T07:37:28Z</time>
      </trkpt>
      <trkpt lat="45.22535" lon="0.40051">
        <ele>95</ele>
        <time>2025-04-16T07:37:42Z</time>
      </trkpt>
      <trkpt lat="45.22502" lon="0.40152">
        <ele>97</ele>
        <time>2025-04-16T07:37:56Z</time>
      </trkpt>
      <trkpt lat="45.22454" lon="0.40283">
        <ele>101</ele>
        <time>2025-04-16T07:38:14Z</time>
      </trkpt>
      <trkpt lat="45.22428" lon="0.40349">
        <ele>101</ele>
        <time>2025-04-16T07:38:24Z</time>
      </trkpt>
      <trkpt lat="45.22409" lon="0.4041">
        <ele>101</ele>
        <time>2025-04-16T07:38:32Z</time>
      </trkpt>
      <trkpt lat="45.22395" lon="0.4048">
        <ele>104</ele>
        <time>2025-04-16T07:38:41Z</time>
      </trkpt>
      <trkpt lat="45.2238" lon="0.4062">
        <ele>107</ele>
        <time>2025-04-16T07:38:59Z</time>
      </trkpt>
      <trkpt lat="45.22358" lon="0.40724">
        <ele>106</ele>
        <time>2025-04-16T07:39:13Z</time>
      </trkpt>
      <trkpt lat="45.22348" lon="0.40817">
        <ele>107</ele>
        <time>2025-04-16T07:39:25Z</time>
      </trkpt>
      <trkpt lat="45.22335" lon="0.40877">
        <ele>104</ele>
        <time>2025-04-16T07:39:32Z</time>
      </trkpt>
      <trkpt lat="45.22282" lon="0.41014">
        <ele>106</ele>
        <time>2025-04-16T07:39:52Z</time>
      </trkpt>
      <trkpt lat="45.2227" lon="0.41054">
        <ele>105</ele>
        <time>2025-04-16T07:39:57Z</time>
      </trkpt>
      <trkpt lat="45.22271" lon="0.4109">
        <ele>106</ele>
        <time>2025-04-16T07:40:02Z</time>
      </trkpt>
      <trkpt lat="45.22287" lon="0.41143">
        <ele>107</ele>
        <time>2025-04-16T07:40:09Z</time>
      </trkpt>
      <trkpt lat="45.22296" lon="0.41183">
        <ele>107</ele>
        <time>2025-04-16T07:40:14Z</time>
      </trkpt>
      <trkpt lat="45.22292" lon="0.41211">
        <ele>107</ele>
        <time>2025-04-16T07:40:18Z</time>
      </trkpt>
      <trkpt lat="45.22274" lon="0.4126">
        <ele>106</ele>
        <time>2025-04-16T07:40:25Z</time>
      </trkpt>
      <trkpt lat="45.2226" lon="0.41302">
        <ele>108</ele>
        <time>2025-04-16T07:40:31Z</time>
      </trkpt>
      <trkpt lat="45.22218" lon="0.41552">
        <ele>117</ele>
        <time>2025-04-16T07:41:03Z</time>
      </trkpt>
      <trkpt lat="45.22201" lon="0.41624">
        <ele>120</ele>
        <time>2025-04-16T07:41:12Z</time>
      </trkpt>
      <trkpt lat="45.22178" lon="0.41702">
        <ele>120</ele>
        <time>2025-04-16T07:41:23Z</time>
      </trkpt>
      <trkpt lat="45.22174" lon="0.41734">
        <ele>122</ele>
        <time>2025-04-16T07:41:27Z</time>
      </trkpt>
      <trkpt lat="45.2218" lon="0.4177">
        <ele>124</ele>
        <time>2025-04-16T07:41:32Z</time>
      </trkpt>
      <trkpt lat="45.22194" lon="0.41796">
        <ele>126</ele>
        <time>2025-04-16T07:41:36Z</time>
      </trkpt>
      <trkpt lat="45.22214" lon="0.41817">
        <ele>130</ele>
        <time>2025-04-16T07:41:40Z</time>
      </trkpt>
      <trkpt lat="45.22329" lon="0.41867">
        <ele>144</ele>
        <time>2025-04-16T07:42:02Z</time>
      </trkpt>
      <trkpt lat="45.22388" lon="0.41901">
        <ele>151</ele>
        <time>2025-04-16T07:42:13Z</time>
      </trkpt>
      <trkpt lat="45.22418" lon="0.41926">
        <ele>154</ele>
        <time>2025-04-16T07:42:19Z</time>
      </trkpt>
      <trkpt lat="45.22447" lon="0.41954">
        <ele>157</ele>
        <time>2025-04-16T07:42:25Z</time>
      </trkpt>
      <trkpt lat="45.22472" lon="0.41995">
        <ele>161</ele>
        <time>2025-04-16T07:42:32Z</time>
      </trkpt>
      <trkpt lat="45.22514" lon="0.4208">
        <ele>164</ele>
        <time>2025-04-16T07:42:45Z</time>
      </trkpt>
      <trkpt lat="45.22522" lon="0.42087">
        <ele>165</ele>
        <time>2025-04-16T07:42:47Z</time>
      </trkpt>
      <trkpt lat="45.22536" lon="0.42089">
        <ele>166</ele>
        <time>2025-04-16T07:42:49Z</time>
      </trkpt>
      <trkpt lat="45.22525" lon="0.42131">
        <ele>165</ele>
        <time>2025-04-16T07:42:55Z</time>
      </trkpt>
      <trkpt lat="45.22518" lon="0.42174">
        <ele>165</ele>
        <time>2025-04-16T07:43:01Z</time>
      </trkpt>
      <trkpt lat="45.22541" lon="0.42551">
        <ele>176</ele>
        <time>2025-04-16T07:43:48Z</time>
      </trkpt>
      <trkpt lat="45.22543" lon="0.42587">
        <ele>177</ele>
        <time>2025-04-16T07:43:53Z</time>
      </trkpt>
      <trkpt lat="45.22565" lon="0.42706">
        <ele>180</ele>
        <time>2025-04-16T07:44:08Z</time>
      </trkpt>
      <trkpt lat="45.22585" lon="0.42791">
        <ele>186</ele>
        <time>2025-04-16T07:44:19Z</time>
      </trkpt>
      <trkpt lat="45.22538" lon="0.42877">
        <ele>182</ele>
        <time>2025-04-16T07:44:33Z</time>
      </trkpt>
      <trkpt lat="45.22493" lon="0.4294">
        <ele>184</ele>
        <time>2025-04-16T07:44:44Z</time>
      </trkpt>
      <trkpt lat="45.22443" lon="0.42982">
        <ele>186</ele>
        <time>2025-04-16T07:44:54Z</time>
      </trkpt>
      <trkpt lat="45.22401" lon="0.43042">
        <ele>186</ele>
        <time>2025-04-16T07:45:05Z</time>
      </trkpt>
      <trkpt lat="45.2237" lon="0.43094">
        <ele>187</ele>
        <time>2025-04-16T07:45:14Z</time>
      </trkpt>
      <trkpt lat="45.22361" lon="0.43118">
        <ele>187</ele>
        <time>2025-04-16T07:45:17Z</time>
      </trkpt>
      <trkpt lat="45.22346" lon="0.43146">
        <ele>188</ele>
        <time>2025-04-16T07:45:21Z</time>
      </trkpt>
      <trkpt lat="45.2234" lon="0.43208">
        <ele>189</ele>
        <time>2025-04-16T07:45:29Z</time>
      </trkpt>
      <trkpt lat="45.2233" lon="0.43277">
        <ele>190</ele>
        <time>2025-04-16T07:45:38Z</time>
      </trkpt>
      <trkpt lat="45.22305" lon="0.43323">
        <ele>189</ele>
        <time>2025-04-16T07:45:45Z</time>
      </trkpt>
      <trkpt lat="45.22265" lon="0.43352">
        <ele>189</ele>
        <time>2025-04-16T07:45:53Z</time>
      </trkpt>
      <trkpt lat="45.22208" lon="0.43388">
        <ele>186</ele>
        <time>2025-04-16T07:46:04Z</time>
      </trkpt>
      <trkpt lat="45.22175" lon="0.43429">
        <ele>182</ele>
        <time>2025-04-16T07:46:12Z</time>
      </trkpt>
      <trkpt lat="45.22134" lon="0.43472">
        <ele>180</ele>
        <time>2025-04-16T07:46:21Z</time>
      </trkpt>
      <trkpt lat="45.22098" lon="0.43497">
        <ele>182</ele>
        <time>2025-04-16T07:46:28Z</time>
      </trkpt>
      <trkpt lat="45.22009" lon="0.43528">
        <ele>182</ele>
        <time>2025-04-16T07:46:45Z</time>
      </trkpt>
      <trkpt lat="45.2191" lon="0.43591">
        <ele>181</ele>
        <time>2025-04-16T07:47:04Z</time>
      </trkpt>
      <trkpt lat="45.21826" lon="0.43642">
        <ele>182</ele>
        <time>2025-04-16T07:47:20Z</time>
      </trkpt>
      <trkpt lat="45.21734" lon="0.43706">
        <ele>183</ele>
        <time>2025-04-16T07:47:39Z</time>
      </trkpt>
      <trkpt lat="45.217" lon="0.43742">
        <ele>183</ele>
        <time>2025-04-16T07:47:46Z</time>
      </trkpt>
      <trkpt lat="45.21683" lon="0.43767">
        <ele>185</ele>
        <time>2025-04-16T07:47:50Z</time>
      </trkpt>
      <trkpt lat="45.21674" lon="0.43805">
        <ele>189</ele>
        <time>2025-04-16T07:47:55Z</time>
      </trkpt>
      <trkpt lat="45.21652" lon="0.43982">
        <ele>194</ele>
        <time>2025-04-16T07:48:18Z</time>
      </trkpt>
      <trkpt lat="45.21646" lon="0.44014">
        <ele>194</ele>
        <time>2025-04-16T07:48:22Z</time>
      </trkpt>
      <trkpt lat="45.21638" lon="0.44037">
        <ele>194</ele>
        <time>2025-04-16T07:48:25Z</time>
      </trkpt>
      <trkpt lat="45.21629" lon="0.44055">
        <ele>195</ele>
        <time>2025-04-16T07:48:28Z</time>
      </trkpt>
      <trkpt lat="45.2162" lon="0.4407">
        <ele>196</ele>
        <time>2025-04-16T07:48:31Z</time>
      </trkpt>
      <trkpt lat="45.21575" lon="0.44108">
        <ele>199</ele>
        <time>2025-04-16T07:48:40Z</time>
      </trkpt>
      <trkpt lat="45.21535" lon="0.44137">
        <ele>200</ele>
        <time>2025-04-16T07:48:48Z</time>
      </trkpt>
      <trkpt lat="45.21512" lon="0.44149">
        <ele>201</ele>
        <time>2025-04-16T07:48:52Z</time>
      </trkpt>
      <trkpt lat="45.21488" lon="0.44154">
        <ele>202</ele>
        <time>2025-04-16T07:48:57Z</time>
      </trkpt>
      <trkpt lat="45.21332" lon="0.44159">
        <ele>190</ele>
        <time>2025-04-16T07:49:24Z</time>
      </trkpt>
      <trkpt lat="45.21293" lon="0.44165">
        <ele>188</ele>
        <time>2025-04-16T07:49:31Z</time>
      </trkpt>
      <trkpt lat="45.21275" lon="0.44174">
        <ele>186</ele>
        <time>2025-04-16T07:49:35Z</time>
      </trkpt>
      <trkpt lat="45.21258" lon="0.44185">
        <ele>185</ele>
        <time>2025-04-16T07:49:38Z</time>
      </trkpt>
      <trkpt lat="45.21209" lon="0.44228">
        <ele>183</ele>
        <time>2025-04-16T07:49:48Z</time>
      </trkpt>
      <trkpt lat="45.21156" lon="0.44254">
        <ele>183</ele>
        <time>2025-04-16T07:49:58Z</time>
      </trkpt>
      <trkpt lat="45.20923" lon="0.4435">
        <ele>199</ele>
        <time>2025-04-16T07:50:41Z</time>
      </trkpt>
      <trkpt lat="45.20833" lon="0.4439">
        <ele>199</ele>
        <time>2025-04-16T07:50:58Z</time>
      </trkpt>
      <trkpt lat="45.20816" lon="0.44404">
        <ele>197</ele>
        <time>2025-04-16T07:51:02Z</time>
      </trkpt>
      <trkpt lat="45.20802" lon="0.44428">
        <ele>196</ele>
        <time>2025-04-16T07:51:06Z</time>
      </trkpt>
      <trkpt lat="45.20747" lon="0.4457">
        <ele>197</ele>
        <time>2025-04-16T07:51:26Z</time>
      </trkpt>
      <trkpt lat="45.20721" lon="0.44613">
        <ele>199</ele>
        <time>2025-04-16T07:51:33Z</time>
      </trkpt>
      <trkpt lat="45.20652" lon="0.44674">
        <ele>201</ele>
        <time>2025-04-16T07:51:48Z</time>
      </trkpt>
      <trkpt lat="45.2058" lon="0.44733">
        <ele>202</ele>
        <time>2025-04-16T07:52:02Z</time>
      </trkpt>
      <trkpt lat="45.20571" lon="0.4474">
        <ele>201</ele>
        <time>2025-04-16T07:52:04Z</time>
      </trkpt>
      <trkpt lat="45.20558" lon="0.44757">
        <ele>200</ele>
        <time>2025-04-16T07:52:07Z</time>
      </trkpt>
      <trkpt lat="45.20524" lon="0.44833">
        <ele>199</ele>
        <time>2025-04-16T07:52:19Z</time>
      </trkpt>
      <trkpt lat="45.20506" lon="0.44863">
        <ele>200</ele>
        <time>2025-04-16T07:52:23Z</time>
      </trkpt>
      <trkpt lat="45.2046" lon="0.44919">
        <ele>201</ele>
        <time>2025-04-16T07:52:34Z</time>
      </trkpt>
      <trkpt lat="45.20442" lon="0.44943">
        <ele>201</ele>
        <time>2025-04-16T07:52:39Z</time>
      </trkpt>
      <trkpt lat="45.20435" lon="0.44959">
        <ele>201</ele>
        <time>2025-04-16T07:52:41Z</time>
      </trkpt>
      <trkpt lat="45.20416" lon="0.45027">
        <ele>204</ele>
        <time>2025-04-16T07:52:50Z</time>
      </trkpt>
      <trkpt lat="45.20405" lon="0.45047">
        <ele>205</ele>
        <time>2025-04-16T07:52:53Z</time>
      </trkpt>
      <trkpt lat="45.20399" lon="0.45056">
        <ele>206</ele>
        <time>2025-04-16T07:52:55Z</time>
      </trkpt>
      <trkpt lat="45.20364" lon="0.45093">
        <ele>207</ele>
        <time>2025-04-16T07:53:03Z</time>
      </trkpt>
      <trkpt lat="45.20338" lon="0.45108">
        <ele>207</ele>
        <time>2025-04-16T07:53:08Z</time>
      </trkpt>
      <trkpt lat="45.20291" lon="0.45123">
        <ele>209</ele>
        <time>2025-04-16T07:53:16Z</time>
      </trkpt>
      <trkpt lat="45.20145" lon="0.45135">
        <ele>211</ele>
        <time>2025-04-16T07:53:42Z</time>
      </trkpt>
      <trkpt lat="45.20117" lon="0.45122">
        <ele>211</ele>
        <time>2025-04-16T07:53:48Z</time>
      </trkpt>
      <trkpt lat="45.20068" lon="0.45092">
        <ele>211</ele>
        <time>2025-04-16T07:53:57Z</time>
      </trkpt>
      <trkpt lat="45.19909" lon="0.44986">
        <ele>210</ele>
        <time>2025-04-16T07:54:28Z</time>
      </trkpt>
      <trkpt lat="45.19882" lon="0.44969">
        <ele>211</ele>
        <time>2025-04-16T07:54:34Z</time>
      </trkpt>
      <trkpt lat="45.1986" lon="0.44965">
        <ele>211</ele>
        <time>2025-04-16T07:54:37Z</time>
      </trkpt>
      <trkpt lat="45.19839" lon="0.44964">
        <ele>211</ele>
        <time>2025-04-16T07:54:41Z</time>
      </trkpt>
      <trkpt lat="45.19711" lon="0.44993">
        <ele>209</ele>
        <time>2025-04-16T07:55:04Z</time>
      </trkpt>
      <trkpt lat="45.19683" lon="0.45006">
        <ele>209</ele>
        <time>2025-04-16T07:55:10Z</time>
      </trkpt>
      <trkpt lat="45.19586" lon="0.45065">
        <ele>212</ele>
        <time>2025-04-16T07:55:28Z</time>
      </trkpt>
      <trkpt lat="45.19554" lon="0.45077">
        <ele>212</ele>
        <time>2025-04-16T07:55:34Z</time>
      </trkpt>
      <trkpt lat="45.19498" lon="0.45093">
        <ele>211</ele>
        <time>2025-04-16T07:55:44Z</time>
      </trkpt>
      <trkpt lat="45.19476" lon="0.45091">
        <ele>210</ele>
        <time>2025-04-16T07:55:48Z</time>
      </trkpt>
      <trkpt lat="45.19438" lon="0.45074">
        <ele>210</ele>
        <time>2025-04-16T07:55:55Z</time>
      </trkpt>
      <trkpt lat="45.1944" lon="0.45043">
        <ele>210</ele>
        <time>2025-04-16T07:55:59Z</time>
      </trkpt>
      <trkpt lat="45.19434" lon="0.4499">
        <ele>210</ele>
        <time>2025-04-16T07:56:06Z</time>
      </trkpt>
      <trkpt lat="45.1942" lon="0.44906">
        <ele>210</ele>
        <time>2025-04-16T07:56:17Z</time>
      </trkpt>
      <trkpt lat="45.194" lon="0.44825">
        <ele>210</ele>
        <time>2025-04-16T07:56:28Z</time>
      </trkpt>
      <trkpt lat="45.19385" lon="0.44778">
        <ele>211</ele>
        <time>2025-04-16T07:56:34Z</time>
      </trkpt>
      <trkpt lat="45.19364" lon="0.44723">
        <ele>212</ele>
        <time>2025-04-16T07:56:42Z</time>
      </trkpt>
      <trkpt lat="45.19294" lon="0.44554">
        <ele>213</ele>
        <time>2025-04-16T07:57:06Z</time>
      </trkpt>
      <trkpt lat="45.1927" lon="0.44494">
        <ele>212</ele>
        <time>2025-04-16T07:57:15Z</time>
      </trkpt>
      <trkpt lat="45.19252" lon="0.44441">
        <ele>213</ele>
        <time>2025-04-16T07:57:23Z</time>
      </trkpt>
      <trkpt lat="45.19187" lon="0.44319">
        <ele>215</ele>
        <time>2025-04-16T07:57:42Z</time>
      </trkpt>
      <trkpt lat="45.19175" lon="0.44298">
        <ele>215</ele>
        <time>2025-04-16T07:57:45Z</time>
      </trkpt>
      <trkpt lat="45.19164" lon="0.44285">
        <ele>216</ele>
        <time>2025-04-16T07:57:48Z</time>
      </trkpt>
      <trkpt lat="45.19151" lon="0.44276">
        <ele>215</ele>
        <time>2025-04-16T07:57:50Z</time>
      </trkpt>
      <trkpt lat="45.19141" lon="0.44273">
        <ele>215</ele>
        <time>2025-04-16T07:57:52Z</time>
      </trkpt>
      <trkpt lat="45.19115" lon="0.44269">
        <ele>215</ele>
        <time>2025-04-16T07:57:57Z</time>
      </trkpt>
      <trkpt lat="45.19101" lon="0.44263">
        <ele>215</ele>
        <time>2025-04-16T07:57:59Z</time>
      </trkpt>
      <trkpt lat="45.19095" lon="0.44256">
        <ele>215</ele>
        <time>2025-04-16T07:58:01Z</time>
      </trkpt>
      <trkpt lat="45.19088" lon="0.44236">
        <ele>215</ele>
        <time>2025-04-16T07:58:03Z</time>
      </trkpt>
      <trkpt lat="45.19082" lon="0.44157">
        <ele>214</ele>
        <time>2025-04-16T07:58:13Z</time>
      </trkpt>
      <trkpt lat="45.19077" lon="0.44156">
        <ele>214</ele>
        <time>2025-04-16T07:58:14Z</time>
      </trkpt>
      <trkpt lat="45.1898" lon="0.44078">
        <ele>212</ele>
        <time>2025-04-16T07:58:34Z</time>
      </trkpt>
      <trkpt lat="45.18935" lon="0.44048">
        <ele>212</ele>
        <time>2025-04-16T07:58:43Z</time>
      </trkpt>
      <trkpt lat="45.18908" lon="0.44036">
        <ele>212</ele>
        <time>2025-04-16T07:58:48Z</time>
      </trkpt>
      <trkpt lat="45.18735" lon="0.43971">
        <ele>211</ele>
        <time>2025-04-16T07:59:20Z</time>
      </trkpt>
      <trkpt lat="45.18703" lon="0.43952">
        <ele>211</ele>
        <time>2025-04-16T07:59:26Z</time>
      </trkpt>
      <trkpt lat="45.18582" lon="0.4385">
        <ele>216</ele>
        <time>2025-04-16T07:59:51Z</time>
      </trkpt>
      <trkpt lat="45.18545" lon="0.43822">
        <ele>216</ele>
        <time>2025-04-16T07:59:59Z</time>
      </trkpt>
      <trkpt lat="45.18503" lon="0.43801">
        <ele>217</ele>
        <time>2025-04-16T08:00:06Z</time>
      </trkpt>
      <trkpt lat="45.18466" lon="0.43792">
        <ele>216</ele>
        <time>2025-04-16T08:00:13Z</time>
      </trkpt>
      <trkpt lat="45.18429" lon="0.43788">
        <ele>216</ele>
        <time>2025-04-16T08:00:20Z</time>
      </trkpt>
      <trkpt lat="45.18389" lon="0.4379">
        <ele>215</ele>
        <time>2025-04-16T08:00:27Z</time>
      </trkpt>
      <trkpt lat="45.18336" lon="0.43802">
        <ele>213</ele>
        <time>2025-04-16T08:00:36Z</time>
      </trkpt>
      <trkpt lat="45.18314" lon="0.43803">
        <ele>212</ele>
        <time>2025-04-16T08:00:40Z</time>
      </trkpt>
      <trkpt lat="45.18283" lon="0.43797">
        <ele>211</ele>
        <time>2025-04-16T08:00:46Z</time>
      </trkpt>
      <trkpt lat="45.18224" lon="0.43779">
        <ele>210</ele>
        <time>2025-04-16T08:00:57Z</time>
      </trkpt>
      <trkpt lat="45.18184" lon="0.43763">
        <ele>211</ele>
        <time>2025-04-16T08:01:04Z</time>
      </trkpt>
      <trkpt lat="45.18143" lon="0.43741">
        <ele>212</ele>
        <time>2025-04-16T08:01:12Z</time>
      </trkpt>
      <trkpt lat="45.18108" lon="0.43719">
        <ele>211</ele>
        <time>2025-04-16T08:01:19Z</time>
      </trkpt>
      <trkpt lat="45.18078" lon="0.43693">
        <ele>211</ele>
        <time>2025-04-16T08:01:25Z</time>
      </trkpt>
      <trkpt lat="45.18028" lon="0.43645">
        <ele>209</ele>
        <time>2025-04-16T08:01:36Z</time>
      </trkpt>
      <trkpt lat="45.17938" lon="0.43541">
        <ele>208</ele>
        <time>2025-04-16T08:01:56Z</time>
      </trkpt>
      <trkpt lat="45.17919" lon="0.43522">
        <ele>208</ele>
        <time>2025-04-16T08:02:00Z</time>
      </trkpt>
      <trkpt lat="45.179" lon="0.4351">
        <ele>208</ele>
        <time>2025-04-16T08:02:04Z</time>
      </trkpt>
      <trkpt lat="45.1789" lon="0.43508">
        <ele>207</ele>
        <time>2025-04-16T08:02:06Z</time>
      </trkpt>
      <trkpt lat="45.17876" lon="0.43509">
        <ele>206</ele>
        <time>2025-04-16T08:02:08Z</time>
      </trkpt>
      <trkpt lat="45.17591" lon="0.43621">
        <ele>199</ele>
        <time>2025-04-16T08:03:01Z</time>
      </trkpt>
      <trkpt lat="45.17553" lon="0.43632">
        <ele>198</ele>
        <time>2025-04-16T08:03:08Z</time>
      </trkpt>
      <trkpt lat="45.17521" lon="0.43639">
        <ele>198</ele>
        <time>2025-04-16T08:03:14Z</time>
      </trkpt>
      <trkpt lat="45.17476" lon="0.43645">
        <ele>197</ele>
        <time>2025-04-16T08:03:22Z</time>
      </trkpt>
      <trkpt lat="45.17328" lon="0.43652">
        <ele>194</ele>
        <time>2025-04-16T08:03:48Z</time>
      </trkpt>
      <trkpt lat="45.17298" lon="0.43649">
        <ele>193</ele>
        <time>2025-04-16T08:03:53Z</time>
      </trkpt>
      <trkpt lat="45.17288" lon="0.43645">
        <ele>192</ele>
        <time>2025-04-16T08:03:55Z</time>
      </trkpt>
      <trkpt lat="45.17267" lon="0.43624">
        <ele>191</ele>
        <time>2025-04-16T08:04:00Z</time>
      </trkpt>
      <trkpt lat="45.17225" lon="0.43548">
        <ele>188</ele>
        <time>2025-04-16T08:04:12Z</time>
      </trkpt>
      <trkpt lat="45.1721" lon="0.43532">
        <ele>187</ele>
        <time>2025-04-16T08:04:15Z</time>
      </trkpt>
      <trkpt lat="45.17195" lon="0.43521">
        <ele>186</ele>
        <time>2025-04-16T08:04:18Z</time>
      </trkpt>
      <trkpt lat="45.17181" lon="0.43515">
        <ele>185</ele>
        <time>2025-04-16T08:04:21Z</time>
      </trkpt>
      <trkpt lat="45.17113" lon="0.43499">
        <ele>179</ele>
        <time>2025-04-16T08:04:33Z</time>
      </trkpt>
      <trkpt lat="45.17095" lon="0.43492">
        <ele>178</ele>
        <time>2025-04-16T08:04:37Z</time>
      </trkpt>
      <trkpt lat="45.17078" lon="0.43483">
        <ele>177</ele>
        <time>2025-04-16T08:04:40Z</time>
      </trkpt>
      <trkpt lat="45.17047" lon="0.43459">
        <ele>176</ele>
        <time>2025-04-16T08:04:46Z</time>
      </trkpt>
      <trkpt lat="45.17025" lon="0.4344">
        <ele>174</ele>
        <time>2025-04-16T08:04:51Z</time>
      </trkpt>
      <trkpt lat="45.16984" lon="0.43399">
        <ele>171</ele>
        <time>2025-04-16T08:05:00Z</time>
      </trkpt>
      <trkpt lat="45.16968" lon="0.43367">
        <ele>170</ele>
        <time>2025-04-16T08:05:04Z</time>
      </trkpt>
      <trkpt lat="45.16964" lon="0.43346">
        <ele>168</ele>
        <time>2025-04-16T08:05:07Z</time>
      </trkpt>
      <trkpt lat="45.16962" lon="0.43325">
        <ele>167</ele>
        <time>2025-04-16T08:05:10Z</time>
      </trkpt>
      <trkpt lat="45.16963" lon="0.43298">
        <ele>166</ele>
        <time>2025-04-16T08:05:13Z</time>
      </trkpt>
      <trkpt lat="45.16968" lon="0.43269">
        <ele>164</ele>
        <time>2025-04-16T08:05:17Z</time>
      </trkpt>
      <trkpt lat="45.16973" lon="0.43244">
        <ele>162</ele>
        <time>2025-04-16T08:05:20Z</time>
      </trkpt>
      <trkpt lat="45.16983" lon="0.43221">
        <ele>162</ele>
        <time>2025-04-16T08:05:24Z</time>
      </trkpt>
      <trkpt lat="45.17049" lon="0.43083">
        <ele>156</ele>
        <time>2025-04-16T08:05:45Z</time>
      </trkpt>
      <trkpt lat="45.1706" lon="0.4305">
        <ele>155</ele>
        <time>2025-04-16T08:05:49Z</time>
      </trkpt>
      <trkpt lat="45.17067" lon="0.43018">
        <ele>154</ele>
        <time>2025-04-16T08:05:53Z</time>
      </trkpt>
      <trkpt lat="45.17072" lon="0.42977">
        <ele>153</ele>
        <time>2025-04-16T08:05:59Z</time>
      </trkpt>
      <trkpt lat="45.17071" lon="0.42944">
        <ele>152</ele>
        <time>2025-04-16T08:06:03Z</time>
      </trkpt>
      <trkpt lat="45.17068" lon="0.42912">
        <ele>152</ele>
        <time>2025-04-16T08:06:07Z</time>
      </trkpt>
      <trkpt lat="45.17073" lon="0.42869">
        <ele>151</ele>
        <time>2025-04-16T08:06:12Z</time>
      </trkpt>
      <trkpt lat="45.17081" lon="0.42838">
        <ele>149</ele>
        <time>2025-04-16T08:06:16Z</time>
      </trkpt>
      <trkpt lat="45.17147" lon="0.42677">
        <ele>143</ele>
        <time>2025-04-16T08:06:40Z</time>
      </trkpt>
      <trkpt lat="45.17151" lon="0.42661">
        <ele>143</ele>
        <time>2025-04-16T08:06:42Z</time>
      </trkpt>
      <trkpt lat="45.17154" lon="0.4264">
        <ele>142</ele>
        <time>2025-04-16T08:06:45Z</time>
      </trkpt>
      <trkpt lat="45.17155" lon="0.42616">
        <ele>141</ele>
        <time>2025-04-16T08:06:48Z</time>
      </trkpt>
      <trkpt lat="45.17134" lon="0.42451">
        <ele>140</ele>
        <time>2025-04-16T08:07:09Z</time>
      </trkpt>
      <trkpt lat="45.17136" lon="0.42416">
        <ele>139</ele>
        <time>2025-04-16T08:07:13Z</time>
      </trkpt>
      <trkpt lat="45.17141" lon="0.42397">
        <ele>139</ele>
        <time>2025-04-16T08:07:16Z</time>
      </trkpt>
      <trkpt lat="45.17159" lon="0.42346">
        <ele>136</ele>
        <time>2025-04-16T08:07:23Z</time>
      </trkpt>
      <trkpt lat="45.17233" lon="0.42154">
        <ele>136</ele>
        <time>2025-04-16T08:07:50Z</time>
      </trkpt>
      <trkpt lat="45.17243" lon="0.42122">
        <ele>135</ele>
        <time>2025-04-16T08:07:55Z</time>
      </trkpt>
      <trkpt lat="45.17248" lon="0.4209">
        <ele>134</ele>
        <time>2025-04-16T08:07:59Z</time>
      </trkpt>
      <trkpt lat="45.17247" lon="0.4207">
        <ele>134</ele>
        <time>2025-04-16T08:08:01Z</time>
      </trkpt>
      <trkpt lat="45.17243" lon="0.42032">
        <ele>132</ele>
        <time>2025-04-16T08:08:06Z</time>
      </trkpt>
      <trkpt lat="45.17232" lon="0.41945">
        <ele>130</ele>
        <time>2025-04-16T08:08:17Z</time>
      </trkpt>
      <trkpt lat="45.17232" lon="0.41889">
        <ele>129</ele>
        <time>2025-04-16T08:08:24Z</time>
      </trkpt>
      <trkpt lat="45.17242" lon="0.41753">
        <ele>129</ele>
        <time>2025-04-16T08:08:41Z</time>
      </trkpt>
      <trkpt lat="45.17242" lon="0.41717">
        <ele>129</ele>
        <time>2025-04-16T08:08:46Z</time>
      </trkpt>
      <trkpt lat="45.17239" lon="0.41684">
        <ele>130</ele>
        <time>2025-04-16T08:08:50Z</time>
      </trkpt>
      <trkpt lat="45.172" lon="0.4139">
        <ele>125</ele>
        <time>2025-04-16T08:09:27Z</time>
      </trkpt>
      <trkpt lat="45.17165" lon="0.41251">
        <ele>122</ele>
        <time>2025-04-16T08:09:46Z</time>
      </trkpt>
      <trkpt lat="45.17146" lon="0.41132">
        <ele>123</ele>
        <time>2025-04-16T08:10:01Z</time>
      </trkpt>
      <trkpt lat="45.17141" lon="0.41116">
        <ele>122</ele>
        <time>2025-04-16T08:10:03Z</time>
      </trkpt>
      <trkpt lat="45.17132" lon="0.41098">
        <ele>122</ele>
        <time>2025-04-16T08:10:06Z</time>
      </trkpt>
      <trkpt lat="45.17108" lon="0.4106">
        <ele>120</ele>
        <time>2025-04-16T08:10:13Z</time>
      </trkpt>
      <trkpt lat="45.17078" lon="0.40955">
        <ele>120</ele>
        <time>2025-04-16T08:10:27Z</time>
      </trkpt>
      <trkpt lat="45.17058" lon="0.40897">
        <ele>121</ele>
        <time>2025-04-16T08:10:35Z</time>
      </trkpt>
      <trkpt lat="45.17049" lon="0.40877">
        <ele>121</ele>
        <time>2025-04-16T08:10:38Z</time>
      </trkpt>
      <trkpt lat="45.17033" lon="0.40852">
        <ele>121</ele>
        <time>2025-04-16T08:10:42Z</time>
      </trkpt>
      <trkpt lat="45.17025" lon="0.40843">
        <ele>121</ele>
        <time>2025-04-16T08:10:44Z</time>
      </trkpt>
      <trkpt lat="45.16992" lon="0.40825">
        <ele>120</ele>
        <time>2025-04-16T08:10:50Z</time>
      </trkpt>
      <trkpt lat="45.16981" lon="0.40817">
        <ele>119</ele>
        <time>2025-04-16T08:10:52Z</time>
      </trkpt>
      <trkpt lat="45.16968" lon="0.40799">
        <ele>119</ele>
        <time>2025-04-16T08:10:56Z</time>
      </trkpt>
      <trkpt lat="45.16958" lon="0.40781">
        <ele>119</ele>
        <time>2025-04-16T08:10:59Z</time>
      </trkpt>
      <trkpt lat="45.16943" lon="0.40747">
        <ele>118</ele>
        <time>2025-04-16T08:11:04Z</time>
      </trkpt>
      <trkpt lat="45.16917" lon="0.40666">
        <ele>116</ele>
        <time>2025-04-16T08:11:15Z</time>
      </trkpt>
      <trkpt lat="45.16866" lon="0.40568">
        <ele>117</ele>
        <time>2025-04-16T08:11:30Z</time>
      </trkpt>
      <trkpt lat="45.16843" lon="0.40517">
        <ele>116</ele>
        <time>2025-04-16T08:11:38Z</time>
      </trkpt>
      <trkpt lat="45.16782" lon="0.40354">
        <ele>118</ele>
        <time>2025-04-16T08:12:01Z</time>
      </trkpt>
      <trkpt lat="45.16763" lon="0.40304">
        <ele>118</ele>
        <time>2025-04-16T08:12:08Z</time>
      </trkpt>
      <trkpt lat="45.16755" lon="0.40293">
        <ele>118</ele>
        <time>2025-04-16T08:12:10Z</time>
      </trkpt>
      <trkpt lat="45.16557" lon="0.40129">
        <ele>111</ele>
        <time>2025-04-16T08:12:51Z</time>
      </trkpt>
      <trkpt lat="45.16489" lon="0.40061">
        <ele>111</ele>
        <time>2025-04-16T08:13:05Z</time>
      </trkpt>
      <trkpt lat="45.16459" lon="0.40035">
        <ele>110</ele>
        <time>2025-04-16T08:13:12Z</time>
      </trkpt>
      <trkpt lat="45.16431" lon="0.40005">
        <ele>108</ele>
        <time>2025-04-16T08:13:18Z</time>
      </trkpt>
      <trkpt lat="45.16412" lon="0.39973">
        <ele>108</ele>
        <time>2025-04-16T08:13:23Z</time>
      </trkpt>
      <trkpt lat="45.16398" lon="0.39945">
        <ele>109</ele>
        <time>2025-04-16T08:13:28Z</time>
      </trkpt>
      <trkpt lat="45.1639" lon="0.39911">
        <ele>110</ele>
        <time>2025-04-16T08:13:32Z</time>
      </trkpt>
      <trkpt lat="45.16388" lon="0.39891">
        <ele>110</ele>
        <time>2025-04-16T08:13:35Z</time>
      </trkpt>
      <trkpt lat="45.16388" lon="0.39867">
        <ele>110</ele>
        <time>2025-04-16T08:13:38Z</time>
      </trkpt>
      <trkpt lat="45.16391" lon="0.39842">
        <ele>111</ele>
        <time>2025-04-16T08:13:41Z</time>
      </trkpt>
      <trkpt lat="45.16396" lon="0.39824">
        <ele>111</ele>
        <time>2025-04-16T08:13:43Z</time>
      </trkpt>
      <trkpt lat="45.16405" lon="0.39806">
        <ele>112</ele>
        <time>2025-04-16T08:13:46Z</time>
      </trkpt>
      <trkpt lat="45.16417" lon="0.39791">
        <ele>113</ele>
        <time>2025-04-16T08:13:49Z</time>
      </trkpt>
      <trkpt lat="45.16471" lon="0.39754">
        <ele>114</ele>
        <time>2025-04-16T08:13:59Z</time>
      </trkpt>
      <trkpt lat="45.16497" lon="0.39705">
        <ele>115</ele>
        <time>2025-04-16T08:14:07Z</time>
      </trkpt>
      <trkpt lat="45.16511" lon="0.39674">
        <ele>115</ele>
        <time>2025-04-16T08:14:12Z</time>
      </trkpt>
      <trkpt lat="45.16519" lon="0.3965">
        <ele>117</ele>
        <time>2025-04-16T08:14:15Z</time>
      </trkpt>
      <trkpt lat="45.16516" lon="0.39612">
        <ele>119</ele>
        <time>2025-04-16T08:14:20Z</time>
      </trkpt>
      <trkpt lat="45.16435" lon="0.39351">
        <ele>137</ele>
        <time>2025-04-16T08:14:56Z</time>
      </trkpt>
      <trkpt lat="45.16421" lon="0.39322">
        <ele>137</ele>
        <time>2025-04-16T08:15:00Z</time>
      </trkpt>
      <trkpt lat="45.1632" lon="0.39179">
        <ele>141</ele>
        <time>2025-04-16T08:15:25Z</time>
      </trkpt>
      <trkpt lat="45.16274" lon="0.3911">
        <ele>143</ele>
        <time>2025-04-16T08:15:37Z</time>
      </trkpt>
      <trkpt lat="45.16256" lon="0.39071">
        <ele>143</ele>
        <time>2025-04-16T08:15:43Z</time>
      </trkpt>
      <trkpt lat="45.1624" lon="0.39032">
        <ele>143</ele>
        <time>2025-04-16T08:15:49Z</time>
      </trkpt>
      <trkpt lat="45.16222" lon="0.38977">
        <ele>143</ele>
        <time>2025-04-16T08:15:57Z</time>
      </trkpt>
      <trkpt lat="45.16219" lon="0.38929">
        <ele>142</ele>
        <time>2025-04-16T08:16:03Z</time>
      </trkpt>
      <trkpt lat="45.16256" lon="0.38599">
        <ele>131</ele>
        <time>2025-04-16T08:16:44Z</time>
      </trkpt>
      <trkpt lat="45.16263" lon="0.38569">
        <ele>131</ele>
        <time>2025-04-16T08:16:48Z</time>
      </trkpt>
      <trkpt lat="45.16287" lon="0.38518">
        <ele>131</ele>
        <time>2025-04-16T08:16:56Z</time>
      </trkpt>
      <trkpt lat="45.16535" lon="0.3815">
        <ele>141</ele>
        <time>2025-04-16T08:18:00Z</time>
      </trkpt>
      <trkpt lat="45.16556" lon="0.38111">
        <ele>141</ele>
        <time>2025-04-16T08:18:06Z</time>
      </trkpt>
      <trkpt lat="45.16596" lon="0.37986">
        <ele>144</ele>
        <time>2025-04-16T08:18:23Z</time>
      </trkpt>
      <trkpt lat="45.16606" lon="0.37931">
        <ele>145</ele>
        <time>2025-04-16T08:18:31Z</time>
      </trkpt>
      <trkpt lat="45.16607" lon="0.37892">
        <ele>145</ele>
        <time>2025-04-16T08:18:35Z</time>
      </trkpt>
      <trkpt lat="45.16596" lon="0.37767">
        <ele>144</ele>
        <time>2025-04-16T08:18:51Z</time>
      </trkpt>
      <trkpt lat="45.16597" lon="0.37679">
        <ele>143</ele>
        <time>2025-04-16T08:19:02Z</time>
      </trkpt>
      <trkpt lat="45.16606" lon="0.37563">
        <ele>140</ele>
        <time>2025-04-16T08:19:17Z</time>
      </trkpt>
      <trkpt lat="45.16607" lon="0.37517">
        <ele>139</ele>
        <time>2025-04-16T08:19:23Z</time>
      </trkpt>
      <trkpt lat="45.16598" lon="0.3745">
        <ele>137</ele>
        <time>2025-04-16T08:19:31Z</time>
      </trkpt>
      <trkpt lat="45.166" lon="0.3742">
        <ele>136</ele>
        <time>2025-04-16T08:19:35Z</time>
      </trkpt>
      <trkpt lat="45.16625" lon="0.37358">
        <ele>135</ele>
        <time>2025-04-16T08:19:44Z</time>
      </trkpt>
      <trkpt lat="45.16626" lon="0.37336">
        <ele>134</ele>
        <time>2025-04-16T08:19:47Z</time>
      </trkpt>
      <trkpt lat="45.16619" lon="0.37322">
        <ele>133</ele>
        <time>2025-04-16T08:19:49Z</time>
      </trkpt>
      <trkpt lat="45.16542" lon="0.37264">
        <ele>128</ele>
        <time>2025-04-16T08:20:04Z</time>
      </trkpt>
      <trkpt lat="45.16534" lon="0.37249">
        <ele>127</ele>
        <time>2025-04-16T08:20:07Z</time>
      </trkpt>
      <trkpt lat="45.1653" lon="0.37234">
        <ele>127</ele>
        <time>2025-04-16T08:20:09Z</time>
      </trkpt>
      <trkpt lat="45.16529" lon="0.37197">
        <ele>127</ele>
        <time>2025-04-16T08:20:13Z</time>
      </trkpt>
      <trkpt lat="45.16538" lon="0.37114">
        <ele>127</ele>
        <time>2025-04-16T08:20:24Z</time>
      </trkpt>
      <trkpt lat="45.16554" lon="0.37011">
        <ele>125</ele>
        <time>2025-04-16T08:20:37Z</time>
      </trkpt>
      <trkpt lat="45.16563" lon="0.36978">
        <ele>124</ele>
        <time>2025-04-16T08:20:42Z</time>
      </trkpt>
      <trkpt lat="45.16584" lon="0.36929">
        <ele>122</ele>
        <time>2025-04-16T08:20:49Z</time>
      </trkpt>
      <trkpt lat="45.16626" lon="0.36814">
        <ele>120</ele>
        <time>2025-04-16T08:21:05Z</time>
      </trkpt>
      <trkpt lat="45.16668" lon="0.36712">
        <ele>119</ele>
        <time>2025-04-16T08:21:20Z</time>
      </trkpt>
      <trkpt lat="45.16672" lon="0.36679">
        <ele>118</ele>
        <time>2025-04-16T08:21:24Z</time>
      </trkpt>
      <trkpt lat="45.16667" lon="0.36629">
        <ele>118</ele>
        <time>2025-04-16T08:21:30Z</time>
      </trkpt>
      <trkpt lat="45.16664" lon="0.36545">
        <ele>117</ele>
        <time>2025-04-16T08:21:41Z</time>
      </trkpt>
      <trkpt lat="45.16688" lon="0.3637">
        <ele>113</ele>
        <time>2025-04-16T08:22:03Z</time>
      </trkpt>
      <trkpt lat="45.16711" lon="0.36254">
        <ele>113</ele>
        <time>2025-04-16T08:22:18Z</time>
      </trkpt>
      <trkpt lat="45.1673" lon="0.36205">
        <ele>112</ele>
        <time>2025-04-16T08:22:25Z</time>
      </trkpt>
      <trkpt lat="45.16762" lon="0.36157">
        <ele>109</ele>
        <time>2025-04-16T08:22:34Z</time>
      </trkpt>
      <trkpt lat="45.16795" lon="0.3607">
        <ele>108</ele>
        <time>2025-04-16T08:22:46Z</time>
      </trkpt>
      <trkpt lat="45.16817" lon="0.3596">
        <ele>107</ele>
        <time>2025-04-16T08:23:00Z</time>
      </trkpt>
      <trkpt lat="45.16822" lon="0.35864">
        <ele>107</ele>
        <time>2025-04-16T08:23:13Z</time>
      </trkpt>
      <trkpt lat="45.16841" lon="0.35807">
        <ele>107</ele>
        <time>2025-04-16T08:23:20Z</time>
      </trkpt>
      <trkpt lat="45.16857" lon="0.3574">
        <ele>107</ele>
        <time>2025-04-16T08:23:29Z</time>
      </trkpt>
      <trkpt lat="45.16907" lon="0.35764">
        <ele>109</ele>
        <time>2025-04-16T08:23:39Z</time>
      </trkpt>
      <trkpt lat="45.16929" lon="0.35768">
        <ele>110</ele>
        <time>2025-04-16T08:23:43Z</time>
      </trkpt>
      <trkpt lat="45.16952" lon="0.35765">
        <ele>111</ele>
        <time>2025-04-16T08:23:47Z</time>
      </trkpt>
      <trkpt lat="45.1701" lon="0.35739">
        <ele>116</ele>
        <time>2025-04-16T08:23:58Z</time>
      </trkpt>
      <trkpt lat="45.17063" lon="0.35726">
        <ele>121</ele>
        <time>2025-04-16T08:24:07Z</time>
      </trkpt>
      <trkpt lat="45.17096" lon="0.35716">
        <ele>125</ele>
        <time>2025-04-16T08:24:13Z</time>
      </trkpt>
      <trkpt lat="45.17125" lon="0.35693">
        <ele>130</ele>
        <time>2025-04-16T08:24:19Z</time>
      </trkpt>
      <trkpt lat="45.17141" lon="0.35684">
        <ele>133</ele>
        <time>2025-04-16T08:24:22Z</time>
      </trkpt>
      <trkpt lat="45.17156" lon="0.35681">
        <ele>135</ele>
        <time>2025-04-16T08:24:25Z</time>
      </trkpt>
      <trkpt lat="45.17169" lon="0.35683">
        <ele>136</ele>
        <time>2025-04-16T08:24:27Z</time>
      </trkpt>
      <trkpt lat="45.1721" lon="0.35699">
        <ele>135</ele>
        <time>2025-04-16T08:24:35Z</time>
      </trkpt>
      <trkpt lat="45.17224" lon="0.35702">
        <ele>135</ele>
        <time>2025-04-16T08:24:37Z</time>
      </trkpt>
      <trkpt lat="45.1724" lon="0.35699">
        <ele>135</ele>
        <time>2025-04-16T08:24:40Z</time>
      </trkpt>
      <trkpt lat="45.1727" lon="0.35683">
        <ele>137</ele>
        <time>2025-04-16T08:24:46Z</time>
      </trkpt>
      <trkpt lat="45.17289" lon="0.35675">
        <ele>137</ele>
        <time>2025-04-16T08:24:49Z</time>
      </trkpt>
      <trkpt lat="45.17305" lon="0.35678">
        <ele>137</ele>
        <time>2025-04-16T08:24:52Z</time>
      </trkpt>
      <trkpt lat="45.17317" lon="0.35684">
        <ele>138</ele>
        <time>2025-04-16T08:24:55Z</time>
      </trkpt>
      <trkpt lat="45.17424" lon="0.35756">
        <ele>142</ele>
        <time>2025-04-16T08:25:16Z</time>
      </trkpt>
      <trkpt lat="45.17441" lon="0.35762">
        <ele>142</ele>
        <time>2025-04-16T08:25:19Z</time>
      </trkpt>
      <trkpt lat="45.17452" lon="0.35763">
        <ele>142</ele>
        <time>2025-04-16T08:25:21Z</time>
      </trkpt>
      <trkpt lat="45.1746" lon="0.3576">
        <ele>142</ele>
        <time>2025-04-16T08:25:22Z</time>
      </trkpt>
      <trkpt lat="45.17516" lon="0.35734">
        <ele>141</ele>
        <time>2025-04-16T08:25:33Z</time>
      </trkpt>
      <trkpt lat="45.17576" lon="0.357">
        <ele>136</ele>
        <time>2025-04-16T08:25:44Z</time>
      </trkpt>
      <trkpt lat="45.17608" lon="0.35682">
        <ele>133</ele>
        <time>2025-04-16T08:25:50Z</time>
      </trkpt>
      <trkpt lat="45.17621" lon="0.35662">
        <ele>132</ele>
        <time>2025-04-16T08:25:54Z</time>
      </trkpt>
      <trkpt lat="45.17626" lon="0.35634">
        <ele>132</ele>
        <time>2025-04-16T08:25:57Z</time>
      </trkpt>
      <trkpt lat="45.17635" lon="0.3561">
        <ele>131</ele>
        <time>2025-04-16T08:26:01Z</time>
      </trkpt>
      <trkpt lat="45.17648" lon="0.35595">
        <ele>130</ele>
        <time>2025-04-16T08:26:04Z</time>
      </trkpt>
      <trkpt lat="45.17662" lon="0.35588">
        <ele>129</ele>
        <time>2025-04-16T08:26:06Z</time>
      </trkpt>
      <trkpt lat="45.17674" lon="0.35586">
        <ele>130</ele>
        <time>2025-04-16T08:26:08Z</time>
      </trkpt>
      <trkpt lat="45.17689" lon="0.3559">
        <ele>131</ele>
        <time>2025-04-16T08:26:11Z</time>
      </trkpt>
      <trkpt lat="45.17727" lon="0.35607">
        <ele>134</ele>
        <time>2025-04-16T08:26:18Z</time>
      </trkpt>
      <trkpt lat="45.17804" lon="0.35647">
        <ele>140</ele>
        <time>2025-04-16T08:26:33Z</time>
      </trkpt>
      <trkpt lat="45.17836" lon="0.35658">
        <ele>142</ele>
        <time>2025-04-16T08:26:39Z</time>
      </trkpt>
      <trkpt lat="45.17872" lon="0.35661">
        <ele>143</ele>
        <time>2025-04-16T08:26:45Z</time>
      </trkpt>
      <trkpt lat="45.17903" lon="0.35657">
        <ele>143</ele>
        <time>2025-04-16T08:26:51Z</time>
      </trkpt>
      <trkpt lat="45.17925" lon="0.35656">
        <ele>144</ele>
        <time>2025-04-16T08:26:55Z</time>
      </trkpt>
      <trkpt lat="45.1798" lon="0.35665">
        <ele>144</ele>
        <time>2025-04-16T08:27:04Z</time>
      </trkpt>
      <trkpt lat="45.17985" lon="0.35672">
        <ele>144</ele>
        <time>2025-04-16T08:27:06Z</time>
      </trkpt>
      <trkpt lat="45.18015" lon="0.35698">
        <ele>145</ele>
        <time>2025-04-16T08:27:12Z</time>
      </trkpt>
      <trkpt lat="45.18027" lon="0.35712">
        <ele>145</ele>
        <time>2025-04-16T08:27:15Z</time>
      </trkpt>
      <trkpt lat="45.18039" lon="0.35735">
        <ele>146</ele>
        <time>2025-04-16T08:27:18Z</time>
      </trkpt>
      <trkpt lat="45.18056" lon="0.35777">
        <ele>146</ele>
        <time>2025-04-16T08:27:24Z</time>
      </trkpt>
      <trkpt lat="45.18083" lon="0.3587">
        <ele>145</ele>
        <time>2025-04-16T08:27:37Z</time>
      </trkpt>
      <trkpt lat="45.18096" lon="0.35898">
        <ele>145</ele>
        <time>2025-04-16T08:27:41Z</time>
      </trkpt>
      <trkpt lat="45.18115" lon="0.35922">
        <ele>145</ele>
        <time>2025-04-16T08:27:46Z</time>
      </trkpt>
      <trkpt lat="45.18135" lon="0.35936">
        <ele>145</ele>
        <time>2025-04-16T08:27:50Z</time>
      </trkpt>
      <trkpt lat="45.18173" lon="0.35945">
        <ele>144</ele>
        <time>2025-04-16T08:27:57Z</time>
      </trkpt>
      <trkpt lat="45.18195" lon="0.35939">
        <ele>142</ele>
        <time>2025-04-16T08:28:01Z</time>
      </trkpt>
      <trkpt lat="45.18364" lon="0.35833">
        <ele>132</ele>
        <time>2025-04-16T08:28:33Z</time>
      </trkpt>
      <trkpt lat="45.18391" lon="0.35819">
        <ele>131</ele>
        <time>2025-04-16T08:28:39Z</time>
      </trkpt>
      <trkpt lat="45.18405" lon="0.35816">
        <ele>131</ele>
        <time>2025-04-16T08:28:41Z</time>
      </trkpt>
      <trkpt lat="45.18434" lon="0.35834">
        <ele>127</ele>
        <time>2025-04-16T08:28:47Z</time>
      </trkpt>
      <trkpt lat="45.18494" lon="0.35879">
        <ele>118</ele>
        <time>2025-04-16T08:28:59Z</time>
      </trkpt>
      <trkpt lat="45.18518" lon="0.35889">
        <ele>118</ele>
        <time>2025-04-16T08:29:03Z</time>
      </trkpt>
      <trkpt lat="45.18538" lon="0.35891">
        <ele>119</ele>
        <time>2025-04-16T08:29:07Z</time>
      </trkpt>
      <trkpt lat="45.18831" lon="0.35844">
        <ele>142</ele>
        <time>2025-04-16T08:29:59Z</time>
      </trkpt>
      <trkpt lat="45.18852" lon="0.35839">
        <ele>143</ele>
        <time>2025-04-16T08:30:03Z</time>
      </trkpt>
      <trkpt lat="45.18872" lon="0.35831">
        <ele>145</ele>
        <time>2025-04-16T08:30:07Z</time>
      </trkpt>
      <trkpt lat="45.19004" lon="0.35734">
        <ele>151</ele>
        <time>2025-04-16T08:30:33Z</time>
      </trkpt>
      <trkpt lat="45.19014" lon="0.35717">
        <ele>151</ele>
        <time>2025-04-16T08:30:36Z</time>
      </trkpt>
      <trkpt lat="45.1903" lon="0.35679">
        <ele>149</ele>
        <time>2025-04-16T08:30:41Z</time>
      </trkpt>
      <trkpt lat="45.19043" lon="0.35665">
        <ele>147</ele>
        <time>2025-04-16T08:30:44Z</time>
      </trkpt>
      <trkpt lat="45.19056" lon="0.35661">
        <ele>146</ele>
        <time>2025-04-16T08:30:47Z</time>
      </trkpt>
      <trkpt lat="45.19069" lon="0.35666">
        <ele>146</ele>
        <time>2025-04-16T08:30:49Z</time>
      </trkpt>
      <trkpt lat="45.19084" lon="0.35678">
        <ele>146</ele>
        <time>2025-04-16T08:30:52Z</time>
      </trkpt>
      <trkpt lat="45.19124" lon="0.35727">
        <ele>144</ele>
        <time>2025-04-16T08:31:02Z</time>
      </trkpt>
      <trkpt lat="45.1915" lon="0.35799">
        <ele>144</ele>
        <time>2025-04-16T08:31:12Z</time>
      </trkpt>
      <trkpt lat="45.19161" lon="0.35815">
        <ele>144</ele>
        <time>2025-04-16T08:31:15Z</time>
      </trkpt>
      <trkpt lat="45.19177" lon="0.35826">
        <ele>142</ele>
        <time>2025-04-16T08:31:18Z</time>
      </trkpt>
      <trkpt lat="45.19194" lon="0.35829">
        <ele>140</ele>
        <time>2025-04-16T08:31:21Z</time>
      </trkpt>
      <trkpt lat="45.19214" lon="0.35825">
        <ele>137</ele>
        <time>2025-04-16T08:31:24Z</time>
      </trkpt>
      <trkpt lat="45.19243" lon="0.35812">
        <ele>134</ele>
        <time>2025-04-16T08:31:30Z</time>
      </trkpt>
      <trkpt lat="45.19294" lon="0.35794">
        <ele>138</ele>
        <time>2025-04-16T08:31:39Z</time>
      </trkpt>
      <trkpt lat="45.19318" lon="0.35793">
        <ele>140</ele>
        <time>2025-04-16T08:31:43Z</time>
      </trkpt>
      <trkpt lat="45.1939" lon="0.35815">
        <ele>147</ele>
        <time>2025-04-16T08:31:57Z</time>
      </trkpt>
      <trkpt lat="45.19409" lon="0.3583">
        <ele>148</ele>
        <time>2025-04-16T08:32:00Z</time>
      </trkpt>
      <trkpt lat="45.19441" lon="0.3587">
        <ele>151</ele>
        <time>2025-04-16T08:32:08Z</time>
      </trkpt>
      <trkpt lat="45.19448" lon="0.35877">
        <ele>152</ele>
        <time>2025-04-16T08:32:09Z</time>
      </trkpt>
      <trkpt lat="45.19456" lon="0.35881">
        <ele>153</ele>
        <time>2025-04-16T08:32:11Z</time>
      </trkpt>
      <trkpt lat="45.19481" lon="0.35888">
        <ele>157</ele>
        <time>2025-04-16T08:32:16Z</time>
      </trkpt>
      <trkpt lat="45.1958" lon="0.35908">
        <ele>164</ele>
        <time>2025-04-16T08:32:33Z</time>
      </trkpt>
      <trkpt lat="45.19588" lon="0.35913">
        <ele>165</ele>
        <time>2025-04-16T08:32:35Z</time>
      </trkpt>
      <trkpt lat="45.19596" lon="0.35921">
        <ele>165</ele>
        <time>2025-04-16T08:32:37Z</time>
      </trkpt>
      <trkpt lat="45.19609" lon="0.35941">
        <ele>166</ele>
        <time>2025-04-16T08:32:40Z</time>
      </trkpt>
      <trkpt lat="45.19646" lon="0.36003">
        <ele>170</ele>
        <time>2025-04-16T08:32:50Z</time>
      </trkpt>
      <trkpt lat="45.1966" lon="0.36014">
        <ele>171</ele>
        <time>2025-04-16T08:32:53Z</time>
      </trkpt>
      <trkpt lat="45.19722" lon="0.36023">
        <ele>172</ele>
        <time>2025-04-16T08:33:04Z</time>
      </trkpt>
      <trkpt lat="45.19716" lon="0.35945">
        <ele>168</ele>
        <time>2025-04-16T08:33:14Z</time>
      </trkpt>
      <trkpt lat="45.19717" lon="0.35858">
        <ele>161</ele>
        <time>2025-04-16T08:33:25Z</time>
      </trkpt>
      <trkpt lat="45.19718" lon="0.35841">
        <ele>159</ele>
        <time>2025-04-16T08:33:27Z</time>
      </trkpt>
      <trkpt lat="45.1972" lon="0.35825">
        <ele>157</ele>
        <time>2025-04-16T08:33:29Z</time>
      </trkpt>
      <trkpt lat="45.19728" lon="0.35803">
        <ele>156</ele>
        <time>2025-04-16T08:33:32Z</time>
      </trkpt>
      <trkpt lat="45.1973" lon="0.35797">
        <ele>155</ele>
        <time>2025-04-16T08:33:33Z</time>
      </trkpt>
      <trkpt lat="45.19739" lon="0.35768">
        <ele>153</ele>
        <time>2025-04-16T08:33:37Z</time>
      </trkpt>
      <trkpt lat="45.19741" lon="0.35755">
        <ele>152</ele>
        <time>2025-04-16T08:33:39Z</time>
      </trkpt>
      <trkpt lat="45.19738" lon="0.35738">
        <ele>149</ele>
        <time>2025-04-16T08:33:41Z</time>
      </trkpt>
      <trkpt lat="45.19728" lon="0.35727">
        <ele>148</ele>
        <time>2025-04-16T08:33:43Z</time>
      </trkpt>
      <trkpt lat="45.19718" lon="0.35718">
        <ele>147</ele>
        <time>2025-04-16T08:33:45Z</time>
      </trkpt>
      <trkpt lat="45.19673" lon="0.35688">
        <ele>145</ele>
        <time>2025-04-16T08:33:54Z</time>
      </trkpt>
      <trkpt lat="45.19671" lon="0.35685">
        <ele>145</ele>
        <time>2025-04-16T08:33:55Z</time>
      </trkpt>
      <trkpt lat="45.1967" lon="0.35679">
        <ele>144</ele>
        <time>2025-04-16T08:33:55Z</time>
      </trkpt>
      <trkpt lat="45.19673" lon="0.35672">
        <ele>143</ele>
        <time>2025-04-16T08:33:56Z</time>
      </trkpt>
      <trkpt lat="45.19679" lon="0.35671">
        <ele>142</ele>
        <time>2025-04-16T08:33:57Z</time>
      </trkpt>
      <trkpt lat="45.19792" lon="0.35699">
        <ele>139</ele>
        <time>2025-04-16T08:34:18Z</time>
      </trkpt>
      <trkpt lat="45.19807" lon="0.357">
        <ele>138</ele>
        <time>2025-04-16T08:34:21Z</time>
      </trkpt>
      <trkpt lat="45.19818" lon="0.35697">
        <ele>137</ele>
        <time>2025-04-16T08:34:23Z</time>
      </trkpt>
      <trkpt lat="45.19826" lon="0.35692">
        <ele>136</ele>
        <time>2025-04-16T08:34:24Z</time>
      </trkpt>
      <trkpt lat="45.19834" lon="0.35683">
        <ele>135</ele>
        <time>2025-04-16T08:34:26Z</time>
      </trkpt>
      <trkpt lat="45.1984" lon="0.35672">
        <ele>135</ele>
        <time>2025-04-16T08:34:28Z</time>
      </trkpt>
      <trkpt lat="45.19845" lon="0.35655">
        <ele>137</ele>
        <time>2025-04-16T08:34:30Z</time>
      </trkpt>
      <trkpt lat="45.19845" lon="0.35641">
        <ele>138</ele>
        <time>2025-04-16T08:34:32Z</time>
      </trkpt>
      <trkpt lat="45.1984" lon="0.35622">
        <ele>139</ele>
        <time>2025-04-16T08:34:34Z</time>
      </trkpt>
      <trkpt lat="45.19835" lon="0.35611">
        <ele>140</ele>
        <time>2025-04-16T08:34:36Z</time>
      </trkpt>
      <trkpt lat="45.19825" lon="0.35595">
        <ele>140</ele>
        <time>2025-04-16T08:34:39Z</time>
      </trkpt>
      <trkpt lat="45.19813" lon="0.35584">
        <ele>139</ele>
        <time>2025-04-16T08:34:41Z</time>
      </trkpt>
      <trkpt lat="45.19717" lon="0.35541">
        <ele>133</ele>
        <time>2025-04-16T08:34:59Z</time>
      </trkpt>
      <trkpt lat="45.19684" lon="0.35523">
        <ele>131</ele>
        <time>2025-04-16T08:35:05Z</time>
      </trkpt>
      <trkpt lat="45.19661" lon="0.35495">
        <ele>129</ele>
        <time>2025-04-16T08:35:11Z</time>
      </trkpt>
      <trkpt lat="45.19637" lon="0.35454">
        <ele>128</ele>
        <time>2025-04-16T08:35:17Z</time>
      </trkpt>
      <trkpt lat="45.19621" lon="0.35413">
        <ele>125</ele>
        <time>2025-04-16T08:35:23Z</time>
      </trkpt>
      <trkpt lat="45.19595" lon="0.35355">
        <ele>122</ele>
        <time>2025-04-16T08:35:32Z</time>
      </trkpt>
      <trkpt lat="45.19585" lon="0.35349">
        <ele>121</ele>
        <time>2025-04-16T08:35:34Z</time>
      </trkpt>
      <trkpt lat="45.1937" lon="0.35098">
        <ele>120</ele>
        <time>2025-04-16T08:36:23Z</time>
      </trkpt>
      <trkpt lat="45.19318" lon="0.3505">
        <ele>118</ele>
        <time>2025-04-16T08:36:34Z</time>
      </trkpt>
      <trkpt lat="45.1929" lon="0.35021">
        <ele>118</ele>
        <time>2025-04-16T08:36:41Z</time>
      </trkpt>
      <trkpt lat="45.19269" lon="0.34987">
        <ele>117</ele>
        <time>2025-04-16T08:36:46Z</time>
      </trkpt>
      <trkpt lat="45.19244" lon="0.3493">
        <ele>115</ele>
        <time>2025-04-16T08:36:55Z</time>
      </trkpt>
      <trkpt lat="45.1923" lon="0.34906">
        <ele>115</ele>
        <time>2025-04-16T08:36:59Z</time>
      </trkpt>
      <trkpt lat="45.19209" lon="0.34882">
        <ele>114</ele>
        <time>2025-04-16T08:37:03Z</time>
      </trkpt>
      <trkpt lat="45.19084" lon="0.34778">
        <ele>116</ele>
        <time>2025-04-16T08:37:29Z</time>
      </trkpt>
      <trkpt lat="45.18925" lon="0.34638">
        <ele>125</ele>
        <time>2025-04-16T08:38:02Z</time>
      </trkpt>
      <trkpt lat="45.18864" lon="0.34581">
        <ele>128</ele>
        <time>2025-04-16T08:38:15Z</time>
      </trkpt>
      <trkpt lat="45.18816" lon="0.34526">
        <ele>129</ele>
        <time>2025-04-16T08:38:26Z</time>
      </trkpt>
      <trkpt lat="45.18763" lon="0.34444">
        <ele>128</ele>
        <time>2025-04-16T08:38:40Z</time>
      </trkpt>
      <trkpt lat="45.18651" lon="0.34113">
        <ele>127</ele>
        <time>2025-04-16T08:39:26Z</time>
      </trkpt>
      <trkpt lat="45.18618" lon="0.33968">
        <ele>123</ele>
        <time>2025-04-16T08:39:46Z</time>
      </trkpt>
      <trkpt lat="45.18594" lon="0.33853">
        <ele>123</ele>
        <time>2025-04-16T08:40:01Z</time>
      </trkpt>
      <trkpt lat="45.18574" lon="0.33696">
        <ele>120</ele>
        <time>2025-04-16T08:40:21Z</time>
      </trkpt>
      <trkpt lat="45.18564" lon="0.33658">
        <ele>120</ele>
        <time>2025-04-16T08:40:26Z</time>
      </trkpt>
      <trkpt lat="45.18553" lon="0.33631">
        <ele>120</ele>
        <time>2025-04-16T08:40:30Z</time>
      </trkpt>
      <trkpt lat="45.18505" lon="0.33554">
        <ele>120</ele>
        <time>2025-04-16T08:40:42Z</time>
      </trkpt>
      <trkpt lat="45.18494" lon="0.33532">
        <ele>119</ele>
        <time>2025-04-16T08:40:46Z</time>
      </trkpt>
      <trkpt lat="45.18441" lon="0.33357">
        <ele>112</ele>
        <time>2025-04-16T08:41:10Z</time>
      </trkpt>
      <trkpt lat="45.18432" lon="0.3334">
        <ele>110</ele>
        <time>2025-04-16T08:41:12Z</time>
      </trkpt>
      <trkpt lat="45.18416" lon="0.3333">
        <ele>109</ele>
        <time>2025-04-16T08:41:15Z</time>
      </trkpt>
      <trkpt lat="45.18372" lon="0.33325">
        <ele>105</ele>
        <time>2025-04-16T08:41:23Z</time>
      </trkpt>
      <trkpt lat="45.18334" lon="0.33302">
        <ele>102</ele>
        <time>2025-04-16T08:41:31Z</time>
      </trkpt>
      <trkpt lat="45.18303" lon="0.33298">
        <ele>101</ele>
        <time>2025-04-16T08:41:36Z</time>
      </trkpt>
      <trkpt lat="45.18286" lon="0.33292">
        <ele>100</ele>
        <time>2025-04-16T08:41:39Z</time>
      </trkpt>
      <trkpt lat="45.18274" lon="0.33279">
        <ele>99</ele>
        <time>2025-04-16T08:41:42Z</time>
      </trkpt>
      <trkpt lat="45.18267" lon="0.33252">
        <ele>98</ele>
        <time>2025-04-16T08:41:46Z</time>
      </trkpt>
      <trkpt lat="45.17736" lon="0.32996">
        <ele>92</ele>
        <time>2025-04-16T08:43:25Z</time>
      </trkpt>
      <trkpt lat="45.17714" lon="0.32983">
        <ele>94</ele>
        <time>2025-04-16T08:43:30Z</time>
      </trkpt>
      <trkpt lat="45.17623" lon="0.32926">
        <ele>95</ele>
        <time>2025-04-16T08:43:47Z</time>
      </trkpt>
      <trkpt lat="45.1753" lon="0.32859">
        <ele>93</ele>
        <time>2025-04-16T08:44:06Z</time>
      </trkpt>
      <trkpt lat="45.17494" lon="0.32838">
        <ele>90</ele>
        <time>2025-04-16T08:44:13Z</time>
      </trkpt>
      <trkpt lat="45.17465" lon="0.32826">
        <ele>88</ele>
        <time>2025-04-16T08:44:18Z</time>
      </trkpt>
      <trkpt lat="45.17256" lon="0.32771">
        <ele>86</ele>
        <time>2025-04-16T08:44:56Z</time>
      </trkpt>
      <trkpt lat="45.17179" lon="0.32733">
        <ele>83</ele>
        <time>2025-04-16T08:45:11Z</time>
      </trkpt>
      <trkpt lat="45.17091" lon="0.3272">
        <ele>81</ele>
        <time>2025-04-16T08:45:26Z</time>
      </trkpt>
      <trkpt lat="45.17057" lon="0.32718">
        <ele>81</ele>
        <time>2025-04-16T08:45:32Z</time>
      </trkpt>
      <trkpt lat="45.17027" lon="0.32726">
        <ele>81</ele>
        <time>2025-04-16T08:45:38Z</time>
      </trkpt>
      <trkpt lat="45.16999" lon="0.32735">
        <ele>80</ele>
        <time>2025-04-16T08:45:43Z</time>
      </trkpt>
      <trkpt lat="45.17002" lon="0.32681">
        <ele>82</ele>
        <time>2025-04-16T08:45:50Z</time>
      </trkpt>
      <trkpt lat="45.17007" lon="0.32649">
        <ele>82</ele>
        <time>2025-04-16T08:45:54Z</time>
      </trkpt>
      <trkpt lat="45.17076" lon="0.32336">
        <ele>84</ele>
        <time>2025-04-16T08:46:35Z</time>
      </trkpt>
      <trkpt lat="45.17077" lon="0.32304">
        <ele>84</ele>
        <time>2025-04-16T08:46:39Z</time>
      </trkpt>
      <trkpt lat="45.17075" lon="0.32272">
        <ele>83</ele>
        <time>2025-04-16T08:46:43Z</time>
      </trkpt>
      <trkpt lat="45.17068" lon="0.32231">
        <ele>83</ele>
        <time>2025-04-16T08:46:48Z</time>
      </trkpt>
      <trkpt lat="45.17063" lon="0.32178">
        <ele>82</ele>
        <time>2025-04-16T08:46:55Z</time>
      </trkpt>
      <trkpt lat="45.1706" lon="0.32126">
        <ele>80</ele>
        <time>2025-04-16T08:47:02Z</time>
      </trkpt>
      <trkpt lat="45.17056" lon="0.31723">
        <ele>79</ele>
        <time>2025-04-16T08:47:52Z</time>
      </trkpt>
      <trkpt lat="45.17059" lon="0.31654">
        <ele>80</ele>
        <time>2025-04-16T08:48:01Z</time>
      </trkpt>
      <trkpt lat="45.1707" lon="0.31565">
        <ele>82</ele>
        <time>2025-04-16T08:48:12Z</time>
      </trkpt>
      <trkpt lat="45.17084" lon="0.3152">
        <ele>83</ele>
        <time>2025-04-16T08:48:18Z</time>
      </trkpt>
      <trkpt lat="45.17123" lon="0.31462">
        <ele>82</ele>
        <time>2025-04-16T08:48:28Z</time>
      </trkpt>
      <trkpt lat="45.17133" lon="0.31435">
        <ele>82</ele>
        <time>2025-04-16T08:48:32Z</time>
      </trkpt>
      <trkpt lat="45.17141" lon="0.31337">
        <ele>80</ele>
        <time>2025-04-16T08:48:45Z</time>
      </trkpt>
      <trkpt lat="45.1714" lon="0.31307">
        <ele>79</ele>
        <time>2025-04-16T08:48:48Z</time>
      </trkpt>
      <trkpt lat="45.17136" lon="0.31283">
        <ele>79</ele>
        <time>2025-04-16T08:48:51Z</time>
      </trkpt>
      <trkpt lat="45.17131" lon="0.31261">
        <ele>78</ele>
        <time>2025-04-16T08:48:54Z</time>
      </trkpt>
      <trkpt lat="45.17114" lon="0.31219">
        <ele>78</ele>
        <time>2025-04-16T08:49:00Z</time>
      </trkpt>
      <trkpt lat="45.17108" lon="0.31192">
        <ele>76</ele>
        <time>2025-04-16T08:49:04Z</time>
      </trkpt>
      <trkpt lat="45.17106" lon="0.31164">
        <ele>74</ele>
        <time>2025-04-16T08:49:07Z</time>
      </trkpt>
      <trkpt lat="45.17137" lon="0.30853">
        <ele>75</ele>
        <time>2025-04-16T08:49:47Z</time>
      </trkpt>
      <trkpt lat="45.17159" lon="0.308">
        <ele>75</ele>
        <time>2025-04-16T08:49:55Z</time>
      </trkpt>
      <trkpt lat="45.17164" lon="0.30772">
        <ele>76</ele>
        <time>2025-04-16T08:49:58Z</time>
      </trkpt>
      <trkpt lat="45.17161" lon="0.30719">
        <ele>78</ele>
        <time>2025-04-16T08:50:05Z</time>
      </trkpt>
      <trkpt lat="45.17159" lon="0.30675">
        <ele>79</ele>
        <time>2025-04-16T08:50:10Z</time>
      </trkpt>
      <trkpt lat="45.17157" lon="0.30617">
        <ele>82</ele>
        <time>2025-04-16T08:50:18Z</time>
      </trkpt>
      <trkpt lat="45.17159" lon="0.3055">
        <ele>82</ele>
        <time>2025-04-16T08:50:26Z</time>
      </trkpt>
      <trkpt lat="45.17145" lon="0.30508">
        <ele>83</ele>
        <time>2025-04-16T08:50:32Z</time>
      </trkpt>
      <trkpt lat="45.17117" lon="0.30499">
        <ele>86</ele>
        <time>2025-04-16T08:50:37Z</time>
      </trkpt>
      <trkpt lat="45.1709" lon="0.30516">
        <ele>90</ele>
        <time>2025-04-16T08:50:42Z</time>
      </trkpt>
      <trkpt lat="45.17058" lon="0.30541">
        <ele>93</ele>
        <time>2025-04-16T08:50:49Z</time>
      </trkpt>
      <trkpt lat="45.17038" lon="0.3054">
        <ele>94</ele>
        <time>2025-04-16T08:50:52Z</time>
      </trkpt>
      <trkpt lat="45.17017" lon="0.30519">
        <ele>96</ele>
        <time>2025-04-16T08:50:57Z</time>
      </trkpt>
      <trkpt lat="45.17003" lon="0.30487">
        <ele>98</ele>
        <time>2025-04-16T08:51:02Z</time>
      </trkpt>
      <trkpt lat="45.16992" lon="0.30424">
        <ele>100</ele>
        <time>2025-04-16T08:51:10Z</time>
      </trkpt>
      <trkpt lat="45.16973" lon="0.30372">
        <ele>103</ele>
        <time>2025-04-16T08:51:17Z</time>
      </trkpt>
      <trkpt lat="45.16934" lon="0.30327">
        <ele>107</ele>
        <time>2025-04-16T08:51:26Z</time>
      </trkpt>
      <trkpt lat="45.16921" lon="0.303">
        <ele>109</ele>
        <time>2025-04-16T08:51:30Z</time>
      </trkpt>
      <trkpt lat="45.16921" lon="0.30239">
        <ele>110</ele>
        <time>2025-04-16T08:51:38Z</time>
      </trkpt>
      <trkpt lat="45.16919" lon="0.30191">
        <ele>111</ele>
        <time>2025-04-16T08:51:44Z</time>
      </trkpt>
      <trkpt lat="45.16893" lon="0.30144">
        <ele>113</ele>
        <time>2025-04-16T08:51:51Z</time>
      </trkpt>
      <trkpt lat="45.16815" lon="0.30027">
        <ele>115</ele>
        <time>2025-04-16T08:52:12Z</time>
      </trkpt>
      <trkpt lat="45.1673" lon="0.29895">
        <ele>116</ele>
        <time>2025-04-16T08:52:34Z</time>
      </trkpt>
      <trkpt lat="45.16608" lon="0.29676">
        <ele>119</ele>
        <time>2025-04-16T08:53:09Z</time>
      </trkpt>
      <trkpt lat="45.16575" lon="0.29637">
        <ele>119</ele>
        <time>2025-04-16T08:53:17Z</time>
      </trkpt>
      <trkpt lat="45.16476" lon="0.29559">
        <ele>116</ele>
        <time>2025-04-16T08:53:37Z</time>
      </trkpt>
      <trkpt lat="45.16412" lon="0.29516">
        <ele>113</ele>
        <time>2025-04-16T08:53:49Z</time>
      </trkpt>
      <trkpt lat="45.16347" lon="0.29466">
        <ele>111</ele>
        <time>2025-04-16T08:54:03Z</time>
      </trkpt>
      <trkpt lat="45.16196" lon="0.29313">
        <ele>108</ele>
        <time>2025-04-16T08:54:36Z</time>
      </trkpt>
      <trkpt lat="45.16168" lon="0.29274">
        <ele>108</ele>
        <time>2025-04-16T08:54:43Z</time>
      </trkpt>
      <trkpt lat="45.16137" lon="0.29201">
        <ele>106</ele>
        <time>2025-04-16T08:54:53Z</time>
      </trkpt>
      <trkpt lat="45.16102" lon="0.29104">
        <ele>103</ele>
        <time>2025-04-16T08:55:07Z</time>
      </trkpt>
      <trkpt lat="45.1591" lon="0.28692">
        <ele>93</ele>
        <time>2025-04-16T08:56:09Z</time>
      </trkpt>
      <trkpt lat="45.15899" lon="0.28665">
        <ele>93</ele>
        <time>2025-04-16T08:56:13Z</time>
      </trkpt>
      <trkpt lat="45.15897" lon="0.28655">
        <ele>93</ele>
        <time>2025-04-16T08:56:14Z</time>
      </trkpt>
      <trkpt lat="45.15898" lon="0.28643">
        <ele>92</ele>
        <time>2025-04-16T08:56:16Z</time>
      </trkpt>
      <trkpt lat="45.159" lon="0.28632">
        <ele>92</ele>
        <time>2025-04-16T08:56:17Z</time>
      </trkpt>
      <trkpt lat="45.15903" lon="0.28624">
        <ele>92</ele>
        <time>2025-04-16T08:56:18Z</time>
      </trkpt>
      <trkpt lat="45.15917" lon="0.28599">
        <ele>91</ele>
        <time>2025-04-16T08:56:22Z</time>
      </trkpt>
      <trkpt lat="45.15922" lon="0.28591">
        <ele>91</ele>
        <time>2025-04-16T08:56:23Z</time>
      </trkpt>
      <trkpt lat="45.15949" lon="0.28548">
        <ele>92</ele>
        <time>2025-04-16T08:56:31Z</time>
      </trkpt>
      <trkpt lat="45.1602" lon="0.28463">
        <ele>96</ele>
        <time>2025-04-16T08:56:47Z</time>
      </trkpt>
      <trkpt lat="45.16044" lon="0.2842">
        <ele>97</ele>
        <time>2025-04-16T08:56:54Z</time>
      </trkpt>
      <trkpt lat="45.16113" lon="0.28281">
        <ele>97</ele>
        <time>2025-04-16T08:57:15Z</time>
      </trkpt>
      <trkpt lat="45.16159" lon="0.28187">
        <ele>100</ele>
        <time>2025-04-16T08:57:30Z</time>
      </trkpt>
      <trkpt lat="45.16199" lon="0.28096">
        <ele>101</ele>
        <time>2025-04-16T08:57:43Z</time>
      </trkpt>
      <trkpt lat="45.16214" lon="0.28027">
        <ele>99</ele>
        <time>2025-04-16T08:57:52Z</time>
      </trkpt>
      <trkpt lat="45.16215" lon="0.27957">
        <ele>96</ele>
        <time>2025-04-16T08:58:01Z</time>
      </trkpt>
      <trkpt lat="45.16211" lon="0.2791">
        <ele>94</ele>
        <time>2025-04-16T08:58:07Z</time>
      </trkpt>
      <trkpt lat="45.16129" lon="0.27519">
        <ele>86</ele>
        <time>2025-04-16T08:58:58Z</time>
      </trkpt>
      <trkpt lat="45.16127" lon="0.27509">
        <ele>86</ele>
        <time>2025-04-16T08:59:00Z</time>
      </trkpt>
      <trkpt lat="45.16061" lon="0.27184">
        <ele>99</ele>
        <time>2025-04-16T08:59:42Z</time>
      </trkpt>
      <trkpt lat="45.1606" lon="0.27143">
        <ele>100</ele>
        <time>2025-04-16T08:59:47Z</time>
      </trkpt>
      <trkpt lat="45.16071" lon="0.27102">
        <ele>101</ele>
        <time>2025-04-16T08:59:53Z</time>
      </trkpt>
      <trkpt lat="45.16089" lon="0.27071">
        <ele>102</ele>
        <time>2025-04-16T08:59:58Z</time>
      </trkpt>
      <trkpt lat="45.16108" lon="0.27049">
        <ele>100</ele>
        <time>2025-04-16T09:00:02Z</time>
      </trkpt>
      <trkpt lat="45.16204" lon="0.27006">
        <ele>93</ele>
        <time>2025-04-16T09:00:20Z</time>
      </trkpt>
      <trkpt lat="45.16214" lon="0.26996">
        <ele>92</ele>
        <time>2025-04-16T09:00:22Z</time>
      </trkpt>
      <trkpt lat="45.16221" lon="0.26981">
        <ele>92</ele>
        <time>2025-04-16T09:00:24Z</time>
      </trkpt>
      <trkpt lat="45.16225" lon="0.26967">
        <ele>91</ele>
        <time>2025-04-16T09:00:26Z</time>
      </trkpt>
      <trkpt lat="45.16228" lon="0.26951">
        <ele>91</ele>
        <time>2025-04-16T09:00:28Z</time>
      </trkpt>
      <trkpt lat="45.16231" lon="0.26892">
        <ele>91</ele>
        <time>2025-04-16T09:00:36Z</time>
      </trkpt>
      <trkpt lat="45.16234" lon="0.26882">
        <ele>91</ele>
        <time>2025-04-16T09:00:37Z</time>
      </trkpt>
      <trkpt lat="45.16243" lon="0.26864">
        <ele>90</ele>
        <time>2025-04-16T09:00:40Z</time>
      </trkpt>
      <trkpt lat="45.16317" lon="0.26754">
        <ele>95</ele>
        <time>2025-04-16T09:00:59Z</time>
      </trkpt>
      <trkpt lat="45.16322" lon="0.26742">
        <ele>96</ele>
        <time>2025-04-16T09:01:01Z</time>
      </trkpt>
      <trkpt lat="45.16327" lon="0.26717">
        <ele>97</ele>
        <time>2025-04-16T09:01:04Z</time>
      </trkpt>
      <trkpt lat="45.1633" lon="0.26535">
        <ele>103</ele>
        <time>2025-04-16T09:01:27Z</time>
      </trkpt>
      <trkpt lat="45.16349" lon="0.26447">
        <ele>104</ele>
        <time>2025-04-16T09:01:38Z</time>
      </trkpt>
      <trkpt lat="45.16384" lon="0.26318">
        <ele>105</ele>
        <time>2025-04-16T09:01:56Z</time>
      </trkpt>
      <trkpt lat="45.16393" lon="0.26301">
        <ele>107</ele>
        <time>2025-04-16T09:01:58Z</time>
      </trkpt>
      <trkpt lat="45.16409" lon="0.26286">
        <ele>108</ele>
        <time>2025-04-16T09:02:02Z</time>
      </trkpt>
      <trkpt lat="45.16479" lon="0.26244">
        <ele>108</ele>
        <time>2025-04-16T09:02:15Z</time>
      </trkpt>
      <trkpt lat="45.16543" lon="0.2623">
        <ele>107</ele>
        <time>2025-04-16T09:02:27Z</time>
      </trkpt>
      <trkpt lat="45.16559" lon="0.26218">
        <ele>106</ele>
        <time>2025-04-16T09:02:30Z</time>
      </trkpt>
      <trkpt lat="45.16602" lon="0.26138">
        <ele>104</ele>
        <time>2025-04-16T09:02:43Z</time>
      </trkpt>
      <trkpt lat="45.16625" lon="0.26116">
        <ele>105</ele>
        <time>2025-04-16T09:02:48Z</time>
      </trkpt>
      <trkpt lat="45.16655" lon="0.26101">
        <ele>104</ele>
        <time>2025-04-16T09:02:53Z</time>
      </trkpt>
      <trkpt lat="45.16682" lon="0.26099">
        <ele>103</ele>
        <time>2025-04-16T09:02:58Z</time>
      </trkpt>
      <trkpt lat="45.16718" lon="0.26084">
        <ele>102</ele>
        <time>2025-04-16T09:03:05Z</time>
      </trkpt>
      <trkpt lat="45.16763" lon="0.26043">
        <ele>100</ele>
        <time>2025-04-16T09:03:14Z</time>
      </trkpt>
      <trkpt lat="45.16789" lon="0.26034">
        <ele>100</ele>
        <time>2025-04-16T09:03:19Z</time>
      </trkpt>
      <trkpt lat="45.1682" lon="0.26036">
        <ele>100</ele>
        <time>2025-04-16T09:03:25Z</time>
      </trkpt>
      <trkpt lat="45.16846" lon="0.26016">
        <ele>100</ele>
        <time>2025-04-16T09:03:30Z</time>
      </trkpt>
      <trkpt lat="45.16864" lon="0.25981">
        <ele>100</ele>
        <time>2025-04-16T09:03:35Z</time>
      </trkpt>
      <trkpt lat="45.16871" lon="0.25807">
        <ele>107</ele>
        <time>2025-04-16T09:03:57Z</time>
      </trkpt>
      <trkpt lat="45.16876" lon="0.25788">
        <ele>108</ele>
        <time>2025-04-16T09:04:00Z</time>
      </trkpt>
      <trkpt lat="45.16905" lon="0.25711">
        <ele>108</ele>
        <time>2025-04-16T09:04:11Z</time>
      </trkpt>
      <trkpt lat="45.16915" lon="0.25689">
        <ele>109</ele>
        <time>2025-04-16T09:04:14Z</time>
      </trkpt>
      <trkpt lat="45.16933" lon="0.25675">
        <ele>108</ele>
        <time>2025-04-16T09:04:18Z</time>
      </trkpt>
      <trkpt lat="45.16936" lon="0.25671">
        <ele>108</ele>
        <time>2025-04-16T09:04:18Z</time>
      </trkpt>
      <trkpt lat="45.16944" lon="0.25677">
        <ele>108</ele>
        <time>2025-04-16T09:04:20Z</time>
      </trkpt>
      <trkpt lat="45.16965" lon="0.25684">
        <ele>107</ele>
        <time>2025-04-16T09:04:24Z</time>
      </trkpt>
      <trkpt lat="45.16981" lon="0.25685">
        <ele>107</ele>
        <time>2025-04-16T09:04:27Z</time>
      </trkpt>
      <trkpt lat="45.17051" lon="0.25682">
        <ele>106</ele>
        <time>2025-04-16T09:04:39Z</time>
      </trkpt>
      <trkpt lat="45.17092" lon="0.25675">
        <ele>105</ele>
        <time>2025-04-16T09:04:46Z</time>
      </trkpt>
      <trkpt lat="45.17107" lon="0.25667">
        <ele>104</ele>
        <time>2025-04-16T09:04:49Z</time>
      </trkpt>
      <trkpt lat="45.17125" lon="0.25655">
        <ele>103</ele>
        <time>2025-04-16T09:04:53Z</time>
      </trkpt>
      <trkpt lat="45.17187" lon="0.25607">
        <ele>102</ele>
        <time>2025-04-16T09:05:05Z</time>
      </trkpt>
      <trkpt lat="45.17203" lon="0.25598">
        <ele>102</ele>
        <time>2025-04-16T09:05:08Z</time>
      </trkpt>
      <trkpt lat="45.17229" lon="0.25588">
        <ele>102</ele>
        <time>2025-04-16T09:05:13Z</time>
      </trkpt>
      <trkpt lat="45.17247" lon="0.25587">
        <ele>102</ele>
        <time>2025-04-16T09:05:16Z</time>
      </trkpt>
      <trkpt lat="45.17277" lon="0.25593">
        <ele>101</ele>
        <time>2025-04-16T09:05:22Z</time>
      </trkpt>
      <trkpt lat="45.17293" lon="0.25602">
        <ele>100</ele>
        <time>2025-04-16T09:05:25Z</time>
      </trkpt>
      <trkpt lat="45.17309" lon="0.25614">
        <ele>100</ele>
        <time>2025-04-16T09:05:28Z</time>
      </trkpt>
      <trkpt lat="45.17325" lon="0.25631">
        <ele>99</ele>
        <time>2025-04-16T09:05:32Z</time>
      </trkpt>
      <trkpt lat="45.17919" lon="0.2636">
        <ele>101</ele>
        <time>2025-04-16T09:07:51Z</time>
      </trkpt>
      <trkpt lat="45.1816" lon="0.26659">
        <ele>101</ele>
        <time>2025-04-16T09:08:48Z</time>
      </trkpt>
      <trkpt lat="45.18181" lon="0.26689">
        <ele>101</ele>
        <time>2025-04-16T09:08:54Z</time>
      </trkpt>
      <trkpt lat="45.1821" lon="0.26736">
        <ele>100</ele>
        <time>2025-04-16T09:09:01Z</time>
      </trkpt>
      <trkpt lat="45.18234" lon="0.2678">
        <ele>99</ele>
        <time>2025-04-16T09:09:08Z</time>
      </trkpt>
      <trkpt lat="45.18273" lon="0.26859">
        <ele>96</ele>
        <time>2025-04-16T09:09:21Z</time>
      </trkpt>
      <trkpt lat="45.1829" lon="0.2689">
        <ele>95</ele>
        <time>2025-04-16T09:09:25Z</time>
      </trkpt>
      <trkpt lat="45.18306" lon="0.26913">
        <ele>94</ele>
        <time>2025-04-16T09:09:30Z</time>
      </trkpt>
      <trkpt lat="45.18322" lon="0.26925">
        <ele>94</ele>
        <time>2025-04-16T09:09:33Z</time>
      </trkpt>
      <trkpt lat="45.1834" lon="0.26934">
        <ele>93</ele>
        <time>2025-04-16T09:09:36Z</time>
      </trkpt>
      <trkpt lat="45.18361" lon="0.26939">
        <ele>91</ele>
        <time>2025-04-16T09:09:40Z</time>
      </trkpt>
      <trkpt lat="45.18378" lon="0.26938">
        <ele>91</ele>
        <time>2025-04-16T09:09:43Z</time>
      </trkpt>
      <trkpt lat="45.18397" lon="0.26932">
        <ele>90</ele>
        <time>2025-04-16T09:09:46Z</time>
      </trkpt>
      <trkpt lat="45.18414" lon="0.2692">
        <ele>91</ele>
        <time>2025-04-16T09:09:50Z</time>
      </trkpt>
      <trkpt lat="45.18432" lon="0.26902">
        <ele>89</ele>
        <time>2025-04-16T09:09:54Z</time>
      </trkpt>
      <trkpt lat="45.18443" lon="0.26885">
        <ele>87</ele>
        <time>2025-04-16T09:09:57Z</time>
      </trkpt>
      <trkpt lat="45.18453" lon="0.26863">
        <ele>86</ele>
        <time>2025-04-16T09:10:00Z</time>
      </trkpt>
      <trkpt lat="45.18508" lon="0.26722">
        <ele>75</ele>
        <time>2025-04-16T09:10:20Z</time>
      </trkpt>
      <trkpt lat="45.18535" lon="0.26672">
        <ele>70</ele>
        <time>2025-04-16T09:10:28Z</time>
      </trkpt>
      <trkpt lat="45.18554" lon="0.26645">
        <ele>68</ele>
        <time>2025-04-16T09:10:33Z</time>
      </trkpt>
      <trkpt lat="45.18571" lon="0.26625">
        <ele>66</ele>
        <time>2025-04-16T09:10:37Z</time>
      </trkpt>
      <trkpt lat="45.18588" lon="0.26608">
        <ele>65</ele>
        <time>2025-04-16T09:10:40Z</time>
      </trkpt>
      <trkpt lat="45.18603" lon="0.26599">
        <ele>65</ele>
        <time>2025-04-16T09:10:43Z</time>
      </trkpt>
      <trkpt lat="45.18612" lon="0.26651">
        <ele>64</ele>
        <time>2025-04-16T09:10:50Z</time>
      </trkpt>
      <trkpt lat="45.18612" lon="0.26675">
        <ele>64</ele>
        <time>2025-04-16T09:10:53Z</time>
      </trkpt>
      <trkpt lat="45.18612" lon="0.26651">
        <ele>64</ele>
        <time>2025-04-16T09:10:56Z</time>
      </trkpt>
      <trkpt lat="45.18603" lon="0.26599">
        <ele>65</ele>
        <time>2025-04-16T09:11:03Z</time>
      </trkpt>
      <trkpt lat="45.18619" lon="0.26593">
        <ele>65</ele>
        <time>2025-04-16T09:11:06Z</time>
      </trkpt>
      <trkpt lat="45.18638" lon="0.26591">
        <ele>64</ele>
        <time>2025-04-16T09:11:09Z</time>
      </trkpt>
      <trkpt lat="45.18671" lon="0.26592">
        <ele>63</ele>
        <time>2025-04-16T09:11:15Z</time>
      </trkpt>
      <trkpt lat="45.18688" lon="0.26593">
        <ele>63</ele>
        <time>2025-04-16T09:11:18Z</time>
      </trkpt>
      <trkpt lat="45.1873" lon="0.26594">
        <ele>63</ele>
        <time>2025-04-16T09:11:25Z</time>
      </trkpt>
      <trkpt lat="45.18763" lon="0.26599">
        <ele>63</ele>
        <time>2025-04-16T09:11:31Z</time>
      </trkpt>
      <trkpt lat="45.1879" lon="0.26607">
        <ele>63</ele>
        <time>2025-04-16T09:11:36Z</time>
      </trkpt>
      <trkpt lat="45.1882" lon="0.26624">
        <ele>64</ele>
        <time>2025-04-16T09:11:42Z</time>
      </trkpt>
      <trkpt lat="45.18834" lon="0.26635">
        <ele>65</ele>
        <time>2025-04-16T09:11:45Z</time>
      </trkpt>
      <trkpt lat="45.18852" lon="0.26623">
        <ele>65</ele>
        <time>2025-04-16T09:11:48Z</time>
      </trkpt>
      <trkpt lat="45.18877" lon="0.26616">
        <ele>65</ele>
        <time>2025-04-16T09:11:53Z</time>
      </trkpt>
      <trkpt lat="45.18907" lon="0.26615">
        <ele>65</ele>
        <time>2025-04-16T09:11:58Z</time>
      </trkpt>
      <trkpt lat="45.18937" lon="0.26621">
        <ele>66</ele>
        <time>2025-04-16T09:12:04Z</time>
      </trkpt>
      <trkpt lat="45.18987" lon="0.26641">
        <ele>68</ele>
        <time>2025-04-16T09:12:13Z</time>
      </trkpt>
      <trkpt lat="45.19038" lon="0.26673">
        <ele>70</ele>
        <time>2025-04-16T09:12:23Z</time>
      </trkpt>
      <trkpt lat="45.19098" lon="0.26693">
        <ele>74</ele>
        <time>2025-04-16T09:12:34Z</time>
      </trkpt>
      <trkpt lat="45.19133" lon="0.26689">
        <ele>75</ele>
        <time>2025-04-16T09:12:40Z</time>
      </trkpt>
      <trkpt lat="45.19154" lon="0.26683">
        <ele>77</ele>
        <time>2025-04-16T09:12:44Z</time>
      </trkpt>
      <trkpt lat="45.19226" lon="0.26653">
        <ele>85</ele>
        <time>2025-04-16T09:12:57Z</time>
      </trkpt>
      <trkpt lat="45.19275" lon="0.26636">
        <ele>89</ele>
        <time>2025-04-16T09:13:06Z</time>
      </trkpt>
      <trkpt lat="45.19309" lon="0.26613">
        <ele>91</ele>
        <time>2025-04-16T09:13:13Z</time>
      </trkpt>
      <trkpt lat="45.19334" lon="0.26588">
        <ele>93</ele>
        <time>2025-04-16T09:13:18Z</time>
      </trkpt>
      <trkpt lat="45.19361" lon="0.26564">
        <ele>95</ele>
        <time>2025-04-16T09:13:24Z</time>
      </trkpt>
      <trkpt lat="45.19432" lon="0.2653">
        <ele>99</ele>
        <time>2025-04-16T09:13:37Z</time>
      </trkpt>
      <trkpt lat="45.19456" lon="0.2652">
        <ele>101</ele>
        <time>2025-04-16T09:13:42Z</time>
      </trkpt>
      <trkpt lat="45.19476" lon="0.26517">
        <ele>102</ele>
        <time>2025-04-16T09:13:45Z</time>
      </trkpt>
      <trkpt lat="45.19497" lon="0.26519">
        <ele>102</ele>
        <time>2025-04-16T09:13:49Z</time>
      </trkpt>
      <trkpt lat="45.19569" lon="0.26547">
        <ele>104</ele>
        <time>2025-04-16T09:14:02Z</time>
      </trkpt>
      <trkpt lat="45.19604" lon="0.26559">
        <ele>105</ele>
        <time>2025-04-16T09:14:09Z</time>
      </trkpt>
      <trkpt lat="45.19636" lon="0.26568">
        <ele>106</ele>
        <time>2025-04-16T09:14:15Z</time>
      </trkpt>
      <trkpt lat="45.19765" lon="0.26586">
        <ele>112</ele>
        <time>2025-04-16T09:14:38Z</time>
      </trkpt>
      <trkpt lat="45.19783" lon="0.26586">
        <ele>112</ele>
        <time>2025-04-16T09:14:41Z</time>
      </trkpt>
      <trkpt lat="45.19857" lon="0.26559">
        <ele>115</ele>
        <time>2025-04-16T09:14:54Z</time>
      </trkpt>
      <trkpt lat="45.19892" lon="0.2655">
        <ele>117</ele>
        <time>2025-04-16T09:15:01Z</time>
      </trkpt>
      <trkpt lat="45.1991" lon="0.26546">
        <ele>118</ele>
        <time>2025-04-16T09:15:04Z</time>
      </trkpt>
      <trkpt lat="45.19924" lon="0.26549">
        <ele>119</ele>
        <time>2025-04-16T09:15:07Z</time>
      </trkpt>
      <trkpt lat="45.20009" lon="0.26604">
        <ele>117</ele>
        <time>2025-04-16T09:15:23Z</time>
      </trkpt>
      <trkpt lat="45.20044" lon="0.26633">
        <ele>116</ele>
        <time>2025-04-16T09:15:30Z</time>
      </trkpt>
      <trkpt lat="45.20057" lon="0.26637">
        <ele>116</ele>
        <time>2025-04-16T09:15:33Z</time>
      </trkpt>
      <trkpt lat="45.20087" lon="0.26635">
        <ele>116</ele>
        <time>2025-04-16T09:15:38Z</time>
      </trkpt>
      <trkpt lat="45.20109" lon="0.26639">
        <ele>117</ele>
        <time>2025-04-16T09:15:42Z</time>
      </trkpt>
      <trkpt lat="45.20162" lon="0.26659">
        <ele>120</ele>
        <time>2025-04-16T09:15:52Z</time>
      </trkpt>
      <trkpt lat="45.20235" lon="0.26676">
        <ele>122</ele>
        <time>2025-04-16T09:16:05Z</time>
      </trkpt>
      <trkpt lat="45.20255" lon="0.26689">
        <ele>122</ele>
        <time>2025-04-16T09:16:09Z</time>
      </trkpt>
      <trkpt lat="45.20326" lon="0.26763">
        <ele>119</ele>
        <time>2025-04-16T09:16:25Z</time>
      </trkpt>
      <trkpt lat="45.20432" lon="0.26859">
        <ele>120</ele>
        <time>2025-04-16T09:16:47Z</time>
      </trkpt>
      <trkpt lat="45.20467" lon="0.2688">
        <ele>121</ele>
        <time>2025-04-16T09:16:54Z</time>
      </trkpt>
      <trkpt lat="45.20556" lon="0.2692">
        <ele>124</ele>
        <time>2025-04-16T09:17:10Z</time>
      </trkpt>
      <trkpt lat="45.20638" lon="0.26943">
        <ele>127</ele>
        <time>2025-04-16T09:17:25Z</time>
      </trkpt>
      <trkpt lat="45.20713" lon="0.26976">
        <ele>124</ele>
        <time>2025-04-16T09:17:39Z</time>
      </trkpt>
      <trkpt lat="45.20744" lon="0.26998">
        <ele>121</ele>
        <time>2025-04-16T09:17:45Z</time>
      </trkpt>
      <trkpt lat="45.2076" lon="0.27027">
        <ele>122</ele>
        <time>2025-04-16T09:17:50Z</time>
      </trkpt>
      <trkpt lat="45.20797" lon="0.27117">
        <ele>123</ele>
        <time>2025-04-16T09:18:03Z</time>
      </trkpt>
      <trkpt lat="45.20837" lon="0.27221">
        <ele>125</ele>
        <time>2025-04-16T09:18:18Z</time>
      </trkpt>
      <trkpt lat="45.20876" lon="0.27285">
        <ele>127</ele>
        <time>2025-04-16T09:18:28Z</time>
      </trkpt>
      <trkpt lat="45.20888" lon="0.27321">
        <ele>128</ele>
        <time>2025-04-16T09:18:33Z</time>
      </trkpt>
      <trkpt lat="45.20898" lon="0.27378">
        <ele>130</ele>
        <time>2025-04-16T09:18:41Z</time>
      </trkpt>
      <trkpt lat="45.20899" lon="0.27417">
        <ele>131</ele>
        <time>2025-04-16T09:18:46Z</time>
      </trkpt>
      <trkpt lat="45.20969" lon="0.27441">
        <ele>132</ele>
        <time>2025-04-16T09:18:59Z</time>
      </trkpt>
      <trkpt lat="45.21042" lon="0.27462">
        <ele>134</ele>
        <time>2025-04-16T09:19:12Z</time>
      </trkpt>
      <trkpt lat="45.21119" lon="0.27487">
        <ele>136</ele>
        <time>2025-04-16T09:19:26Z</time>
      </trkpt>
      <trkpt lat="45.21255" lon="0.27528">
        <ele>140</ele>
        <time>2025-04-16T09:19:51Z</time>
      </trkpt>
      <trkpt lat="45.21296" lon="0.27545">
        <ele>140</ele>
        <time>2025-04-16T09:19:58Z</time>
      </trkpt>
      <trkpt lat="45.2134" lon="0.27567">
        <ele>140</ele>
        <time>2025-04-16T09:20:06Z</time>
      </trkpt>
      <trkpt lat="45.21377" lon="0.27591">
        <ele>138</ele>
        <time>2025-04-16T09:20:14Z</time>
      </trkpt>
      <trkpt lat="45.21398" lon="0.27616">
        <ele>138</ele>
        <time>2025-04-16T09:20:19Z</time>
      </trkpt>
      <trkpt lat="45.21448" lon="0.27679">
        <ele>139</ele>
        <time>2025-04-16T09:20:30Z</time>
      </trkpt>
      <trkpt lat="45.21499" lon="0.27749">
        <ele>140</ele>
        <time>2025-04-16T09:20:43Z</time>
      </trkpt>
      <trkpt lat="45.21522" lon="0.27774">
        <ele>140</ele>
        <time>2025-04-16T09:20:48Z</time>
      </trkpt>
      <trkpt lat="45.21583" lon="0.27817">
        <ele>141</ele>
        <time>2025-04-16T09:21:00Z</time>
      </trkpt>
      <trkpt lat="45.2162" lon="0.27838">
        <ele>141</ele>
        <time>2025-04-16T09:21:07Z</time>
      </trkpt>
      <trkpt lat="45.21636" lon="0.27866">
        <ele>141</ele>
        <time>2025-04-16T09:21:12Z</time>
      </trkpt>
      <trkpt lat="45.21667" lon="0.2791">
        <ele>141</ele>
        <time>2025-04-16T09:21:20Z</time>
      </trkpt>
      <trkpt lat="45.21671" lon="0.27932">
        <ele>141</ele>
        <time>2025-04-16T09:21:23Z</time>
      </trkpt>
      <trkpt lat="45.21673" lon="0.27963">
        <ele>141</ele>
        <time>2025-04-16T09:21:27Z</time>
      </trkpt>
      <trkpt lat="45.21667" lon="0.28043">
        <ele>139</ele>
        <time>2025-04-16T09:21:37Z</time>
      </trkpt>
      <trkpt lat="45.21668" lon="0.28078">
        <ele>138</ele>
        <time>2025-04-16T09:21:41Z</time>
      </trkpt>
      <trkpt lat="45.21678" lon="0.28128">
        <ele>137</ele>
        <time>2025-04-16T09:21:48Z</time>
      </trkpt>
      <trkpt lat="45.21677" lon="0.28162">
        <ele>136</ele>
        <time>2025-04-16T09:21:52Z</time>
      </trkpt>
      <trkpt lat="45.21673" lon="0.28229">
        <ele>133</ele>
        <time>2025-04-16T09:22:00Z</time>
      </trkpt>
      <trkpt lat="45.21668" lon="0.28263">
        <ele>131</ele>
        <time>2025-04-16T09:22:05Z</time>
      </trkpt>
      <trkpt lat="45.21661" lon="0.2829">
        <ele>129</ele>
        <time>2025-04-16T09:22:08Z</time>
      </trkpt>
      <trkpt lat="45.21647" lon="0.28331">
        <ele>126</ele>
        <time>2025-04-16T09:22:14Z</time>
      </trkpt>
      <trkpt lat="45.21643" lon="0.28354">
        <ele>124</ele>
        <time>2025-04-16T09:22:17Z</time>
      </trkpt>
      <trkpt lat="45.21642" lon="0.28379">
        <ele>122</ele>
        <time>2025-04-16T09:22:20Z</time>
      </trkpt>
      <trkpt lat="45.21648" lon="0.28435">
        <ele>117</ele>
        <time>2025-04-16T09:22:27Z</time>
      </trkpt>
      <trkpt lat="45.21647" lon="0.28473">
        <ele>115</ele>
        <time>2025-04-16T09:22:32Z</time>
      </trkpt>
      <trkpt lat="45.2164" lon="0.28551">
        <ele>113</ele>
        <time>2025-04-16T09:22:42Z</time>
      </trkpt>
      <trkpt lat="45.21638" lon="0.2861">
        <ele>113</ele>
        <time>2025-04-16T09:22:49Z</time>
      </trkpt>
      <trkpt lat="45.21635" lon="0.28631">
        <ele>113</ele>
        <time>2025-04-16T09:22:52Z</time>
      </trkpt>
      <trkpt lat="45.21637" lon="0.28641">
        <ele>114</ele>
        <time>2025-04-16T09:22:53Z</time>
      </trkpt>
      <trkpt lat="45.21653" lon="0.28653">
        <ele>114</ele>
        <time>2025-04-16T09:22:56Z</time>
      </trkpt>
      <trkpt lat="45.21669" lon="0.2866">
        <ele>115</ele>
        <time>2025-04-16T09:22:59Z</time>
      </trkpt>
      <trkpt lat="45.21666" lon="0.28685">
        <ele>115</ele>
        <time>2025-04-16T09:23:02Z</time>
      </trkpt>
      <trkpt lat="45.21659" lon="0.28709">
        <ele>115</ele>
        <time>2025-04-16T09:23:06Z</time>
      </trkpt>
      <trkpt lat="45.2162" lon="0.28795">
        <ele>115</ele>
        <time>2025-04-16T09:23:19Z</time>
      </trkpt>
      <trkpt lat="45.21603" lon="0.28839">
        <ele>115</ele>
        <time>2025-04-16T09:23:25Z</time>
      </trkpt>
      <trkpt lat="45.21579" lon="0.28918">
        <ele>122</ele>
        <time>2025-04-16T09:23:36Z</time>
      </trkpt>
      <trkpt lat="45.21563" lon="0.28974">
        <ele>131</ele>
        <time>2025-04-16T09:23:43Z</time>
      </trkpt>
      <trkpt lat="45.21563" lon="0.28986">
        <ele>133</ele>
        <time>2025-04-16T09:23:45Z</time>
      </trkpt>
      <trkpt lat="45.21569" lon="0.28997">
        <ele>134</ele>
        <time>2025-04-16T09:23:46Z</time>
      </trkpt>
      <trkpt lat="45.21582" lon="0.2901">
        <ele>135</ele>
        <time>2025-04-16T09:23:49Z</time>
      </trkpt>
      <trkpt lat="45.21664" lon="0.29059">
        <ele>141</ele>
        <time>2025-04-16T09:24:05Z</time>
      </trkpt>
      <trkpt lat="45.21668" lon="0.29066">
        <ele>142</ele>
        <time>2025-04-16T09:24:06Z</time>
      </trkpt>
      <trkpt lat="45.21669" lon="0.29077">
        <ele>143</ele>
        <time>2025-04-16T09:24:08Z</time>
      </trkpt>
      <trkpt lat="45.2161" lon="0.29234">
        <ele>148</ele>
        <time>2025-04-16T09:24:30Z</time>
      </trkpt>
      <trkpt lat="45.21545" lon="0.29435">
        <ele>146</ele>
        <time>2025-04-16T09:24:58Z</time>
      </trkpt>
      <trkpt lat="45.21544" lon="0.29445">
        <ele>147</ele>
        <time>2025-04-16T09:24:59Z</time>
      </trkpt>
      <trkpt lat="45.21508" lon="0.29467">
        <ele>145</ele>
        <time>2025-04-16T09:25:06Z</time>
      </trkpt>
      <trkpt lat="45.21467" lon="0.29505">
        <ele>143</ele>
        <time>2025-04-16T09:25:15Z</time>
      </trkpt>
      <trkpt lat="45.21325" lon="0.29643">
        <ele>146</ele>
        <time>2025-04-16T09:25:45Z</time>
      </trkpt>
      <trkpt lat="45.21309" lon="0.29666">
        <ele>146</ele>
        <time>2025-04-16T09:25:49Z</time>
      </trkpt>
      <trkpt lat="45.21285" lon="0.29709">
        <ele>146</ele>
        <time>2025-04-16T09:25:56Z</time>
      </trkpt>
      <trkpt lat="45.21181" lon="0.29928">
        <ele>143</ele>
        <time>2025-04-16T09:26:29Z</time>
      </trkpt>
      <trkpt lat="45.21168" lon="0.29948">
        <ele>142</ele>
        <time>2025-04-16T09:26:33Z</time>
      </trkpt>
      <trkpt lat="45.21125" lon="0.29998">
        <ele>145</ele>
        <time>2025-04-16T09:26:43Z</time>
      </trkpt>
      <trkpt lat="45.21105" lon="0.30027">
        <ele>148</ele>
        <time>2025-04-16T09:26:48Z</time>
      </trkpt>
      <trkpt lat="45.21093" lon="0.30054">
        <ele>150</ele>
        <time>2025-04-16T09:26:52Z</time>
      </trkpt>
      <trkpt lat="45.21083" lon="0.3008">
        <ele>153</ele>
        <time>2025-04-16T09:26:55Z</time>
      </trkpt>
      <trkpt lat="45.2107" lon="0.30125">
        <ele>153</ele>
        <time>2025-04-16T09:27:01Z</time>
      </trkpt>
      <trkpt lat="45.2106" lon="0.30169">
        <ele>154</ele>
        <time>2025-04-16T09:27:07Z</time>
      </trkpt>
      <trkpt lat="45.21056" lon="0.30196">
        <ele>154</ele>
        <time>2025-04-16T09:27:11Z</time>
      </trkpt>
      <trkpt lat="45.21056" lon="0.30218">
        <ele>155</ele>
        <time>2025-04-16T09:27:13Z</time>
      </trkpt>
      <trkpt lat="45.21059" lon="0.30242">
        <ele>155</ele>
        <time>2025-04-16T09:27:17Z</time>
      </trkpt>
      <trkpt lat="45.21069" lon="0.30292">
        <ele>155</ele>
        <time>2025-04-16T09:27:23Z</time>
      </trkpt>
      <trkpt lat="45.2107" lon="0.3032">
        <ele>156</ele>
        <time>2025-04-16T09:27:27Z</time>
      </trkpt>
      <trkpt lat="45.21068" lon="0.30344">
        <ele>156</ele>
        <time>2025-04-16T09:27:30Z</time>
      </trkpt>
      <trkpt lat="45.21064" lon="0.30372">
        <ele>157</ele>
        <time>2025-04-16T09:27:33Z</time>
      </trkpt>
      <trkpt lat="45.21052" lon="0.30413">
        <ele>157</ele>
        <time>2025-04-16T09:27:39Z</time>
      </trkpt>
      <trkpt lat="45.21038" lon="0.30444">
        <ele>157</ele>
        <time>2025-04-16T09:27:43Z</time>
      </trkpt>
      <trkpt lat="45.21" lon="0.30517">
        <ele>156</ele>
        <time>2025-04-16T09:27:55Z</time>
      </trkpt>
      <trkpt lat="45.20968" lon="0.30582">
        <ele>154</ele>
        <time>2025-04-16T09:28:05Z</time>
      </trkpt>
      <trkpt lat="45.20955" lon="0.30624">
        <ele>153</ele>
        <time>2025-04-16T09:28:10Z</time>
      </trkpt>
      <trkpt lat="45.20945" lon="0.307">
        <ele>151</ele>
        <time>2025-04-16T09:28:20Z</time>
      </trkpt>
      <trkpt lat="45.20941" lon="0.30722">
        <ele>151</ele>
        <time>2025-04-16T09:28:23Z</time>
      </trkpt>
      <trkpt lat="45.20934" lon="0.30743">
        <ele>151</ele>
        <time>2025-04-16T09:28:26Z</time>
      </trkpt>
      <trkpt lat="45.20922" lon="0.30763">
        <ele>151</ele>
        <time>2025-04-16T09:28:29Z</time>
      </trkpt>
      <trkpt lat="45.2087" lon="0.30829">
        <ele>152</ele>
        <time>2025-04-16T09:28:42Z</time>
      </trkpt>
      <trkpt lat="45.2091" lon="0.30875">
        <ele>151</ele>
        <time>2025-04-16T09:28:51Z</time>
      </trkpt>
      <trkpt lat="45.20924" lon="0.30898">
        <ele>150</ele>
        <time>2025-04-16T09:28:55Z</time>
      </trkpt>
      <trkpt lat="45.20947" lon="0.30952">
        <ele>148</ele>
        <time>2025-04-16T09:29:02Z</time>
      </trkpt>
      <trkpt lat="45.20963" lon="0.30976">
        <ele>147</ele>
        <time>2025-04-16T09:29:07Z</time>
      </trkpt>
      <trkpt lat="45.20975" lon="0.30991">
        <ele>146</ele>
        <time>2025-04-16T09:29:09Z</time>
      </trkpt>
      <trkpt lat="45.21029" lon="0.31044">
        <ele>142</ele>
        <time>2025-04-16T09:29:21Z</time>
      </trkpt>
      <trkpt lat="45.21086" lon="0.3114">
        <ele>135</ele>
        <time>2025-04-16T09:29:37Z</time>
      </trkpt>
      <trkpt lat="45.21104" lon="0.31165">
        <ele>133</ele>
        <time>2025-04-16T09:29:41Z</time>
      </trkpt>
      <trkpt lat="45.2112" lon="0.31181">
        <ele>132</ele>
        <time>2025-04-16T09:29:45Z</time>
      </trkpt>
      <trkpt lat="45.21212" lon="0.31223">
        <ele>128</ele>
        <time>2025-04-16T09:30:02Z</time>
      </trkpt>
      <trkpt lat="45.21227" lon="0.31232">
        <ele>127</ele>
        <time>2025-04-16T09:30:05Z</time>
      </trkpt>
      <trkpt lat="45.21359" lon="0.31378">
        <ele>110</ele>
        <time>2025-04-16T09:30:35Z</time>
      </trkpt>
      <trkpt lat="45.21374" lon="0.31398">
        <ele>109</ele>
        <time>2025-04-16T09:30:38Z</time>
      </trkpt>
      <trkpt lat="45.21582" lon="0.31714">
        <ele>101</ele>
        <time>2025-04-16T09:31:33Z</time>
      </trkpt>
      <trkpt lat="45.21599" lon="0.31723">
        <ele>102</ele>
        <time>2025-04-16T09:31:36Z</time>
      </trkpt>
      <trkpt lat="45.21609" lon="0.31724">
        <ele>102</ele>
        <time>2025-04-16T09:31:38Z</time>
      </trkpt>
      <trkpt lat="45.21697" lon="0.31711">
        <ele>103</ele>
        <time>2025-04-16T09:31:53Z</time>
      </trkpt>
      <trkpt lat="45.21708" lon="0.31712">
        <ele>103</ele>
        <time>2025-04-16T09:31:55Z</time>
      </trkpt>
      <trkpt lat="45.21725" lon="0.31722">
        <ele>104</ele>
        <time>2025-04-16T09:31:59Z</time>
      </trkpt>
      <trkpt lat="45.21729" lon="0.31727">
        <ele>104</ele>
        <time>2025-04-16T09:31:59Z</time>
      </trkpt>
      <trkpt lat="45.21735" lon="0.31734">
        <ele>105</ele>
        <time>2025-04-16T09:32:01Z</time>
      </trkpt>
      <trkpt lat="45.21744" lon="0.31752">
        <ele>106</ele>
        <time>2025-04-16T09:32:04Z</time>
      </trkpt>
      <trkpt lat="45.21814" lon="0.31921">
        <ele>109</ele>
        <time>2025-04-16T09:32:28Z</time>
      </trkpt>
      <trkpt lat="45.2183" lon="0.31953">
        <ele>109</ele>
        <time>2025-04-16T09:32:33Z</time>
      </trkpt>
      <trkpt lat="45.21881" lon="0.31978">
        <ele>109</ele>
        <time>2025-04-16T09:32:43Z</time>
      </trkpt>
      <trkpt lat="45.21937" lon="0.31999">
        <ele>112</ele>
        <time>2025-04-16T09:32:53Z</time>
      </trkpt>
      <trkpt lat="45.21956" lon="0.32002">
        <ele>114</ele>
        <time>2025-04-16T09:32:56Z</time>
      </trkpt>
      <trkpt lat="45.2197" lon="0.31998">
        <ele>115</ele>
        <time>2025-04-16T09:32:59Z</time>
      </trkpt>
      <trkpt lat="45.22013" lon="0.31957">
        <ele>116</ele>
        <time>2025-04-16T09:33:08Z</time>
      </trkpt>
      <trkpt lat="45.22038" lon="0.31944">
        <ele>116</ele>
        <time>2025-04-16T09:33:13Z</time>
      </trkpt>
      <trkpt lat="45.22061" lon="0.31944">
        <ele>118</ele>
        <time>2025-04-16T09:33:17Z</time>
      </trkpt>
      <trkpt lat="45.22084" lon="0.3196">
        <ele>120</ele>
        <time>2025-04-16T09:33:22Z</time>
      </trkpt>
      <trkpt lat="45.22097" lon="0.31986">
        <ele>121</ele>
        <time>2025-04-16T09:33:26Z</time>
      </trkpt>
      <trkpt lat="45.22107" lon="0.32037">
        <ele>122</ele>
        <time>2025-04-16T09:33:32Z</time>
      </trkpt>
      <trkpt lat="45.2212" lon="0.32116">
        <ele>124</ele>
        <time>2025-04-16T09:33:42Z</time>
      </trkpt>
      <trkpt lat="45.22128" lon="0.32157">
        <ele>124</ele>
        <time>2025-04-16T09:33:48Z</time>
      </trkpt>
      <trkpt lat="45.22138" lon="0.32181">
        <ele>125</ele>
        <time>2025-04-16T09:33:51Z</time>
      </trkpt>
      <trkpt lat="45.22158" lon="0.32197">
        <ele>124</ele>
        <time>2025-04-16T09:33:55Z</time>
      </trkpt>
      <trkpt lat="45.22197" lon="0.32214">
        <ele>125</ele>
        <time>2025-04-16T09:34:03Z</time>
      </trkpt>
      <trkpt lat="45.22313" lon="0.32253">
        <ele>127</ele>
        <time>2025-04-16T09:34:24Z</time>
      </trkpt>
      <trkpt lat="45.2233" lon="0.32263">
        <ele>128</ele>
        <time>2025-04-16T09:34:27Z</time>
      </trkpt>
      <trkpt lat="45.22343" lon="0.32275">
        <ele>127</ele>
        <time>2025-04-16T09:34:30Z</time>
      </trkpt>
      <trkpt lat="45.22437" lon="0.32403">
        <ele>125</ele>
        <time>2025-04-16T09:34:53Z</time>
      </trkpt>
      <trkpt lat="45.22576" lon="0.32601">
        <ele>120</ele>
        <time>2025-04-16T09:35:28Z</time>
      </trkpt>
      <trkpt lat="45.22606" lon="0.32634">
        <ele>121</ele>
        <time>2025-04-16T09:35:35Z</time>
      </trkpt>
      <trkpt lat="45.22641" lon="0.32662">
        <ele>123</ele>
        <time>2025-04-16T09:35:42Z</time>
      </trkpt>
      <trkpt lat="45.22672" lon="0.32677">
        <ele>123</ele>
        <time>2025-04-16T09:35:48Z</time>
      </trkpt>
      <trkpt lat="45.22823" lon="0.32712">
        <ele>122</ele>
        <time>2025-04-16T09:36:15Z</time>
      </trkpt>
      <trkpt lat="45.22858" lon="0.32711">
        <ele>122</ele>
        <time>2025-04-16T09:36:21Z</time>
      </trkpt>
      <trkpt lat="45.22918" lon="0.32692">
        <ele>121</ele>
        <time>2025-04-16T09:36:32Z</time>
      </trkpt>
      <trkpt lat="45.23018" lon="0.32645">
        <ele>121</ele>
        <time>2025-04-16T09:36:51Z</time>
      </trkpt>
      <trkpt lat="45.23062" lon="0.32586">
        <ele>120</ele>
        <time>2025-04-16T09:37:02Z</time>
      </trkpt>
      <trkpt lat="45.23082" lon="0.32577">
        <ele>120</ele>
        <time>2025-04-16T09:37:05Z</time>
      </trkpt>
      <trkpt lat="45.23105" lon="0.32557">
        <ele>119</ele>
        <time>2025-04-16T09:37:10Z</time>
      </trkpt>
      <trkpt lat="45.23122" lon="0.32535">
        <ele>118</ele>
        <time>2025-04-16T09:37:14Z</time>
      </trkpt>
      <trkpt lat="45.2319" lon="0.32455">
        <ele>115</ele>
        <time>2025-04-16T09:37:30Z</time>
      </trkpt>
      <trkpt lat="45.23243" lon="0.32405">
        <ele>115</ele>
        <time>2025-04-16T09:37:41Z</time>
      </trkpt>
      <trkpt lat="45.23263" lon="0.32391">
        <ele>115</ele>
        <time>2025-04-16T09:37:45Z</time>
      </trkpt>
      <trkpt lat="45.23296" lon="0.32371">
        <ele>115</ele>
        <time>2025-04-16T09:37:52Z</time>
      </trkpt>
      <trkpt lat="45.23319" lon="0.3236">
        <ele>115</ele>
        <time>2025-04-16T09:37:56Z</time>
      </trkpt>
      <trkpt lat="45.23372" lon="0.32341">
        <ele>115</ele>
        <time>2025-04-16T09:38:06Z</time>
      </trkpt>
      <trkpt lat="45.23381" lon="0.32335">
        <ele>115</ele>
        <time>2025-04-16T09:38:07Z</time>
      </trkpt>
      <trkpt lat="45.23388" lon="0.32322">
        <ele>114</ele>
        <time>2025-04-16T09:38:10Z</time>
      </trkpt>
      <trkpt lat="45.23392" lon="0.32293">
        <ele>114</ele>
        <time>2025-04-16T09:38:13Z</time>
      </trkpt>
      <trkpt lat="45.23404" lon="0.32296">
        <ele>114</ele>
        <time>2025-04-16T09:38:15Z</time>
      </trkpt>
      <trkpt lat="45.23416" lon="0.32305">
        <ele>114</ele>
        <time>2025-04-16T09:38:18Z</time>
      </trkpt>
      <trkpt lat="45.23532" lon="0.32487">
        <ele>120</ele>
        <time>2025-04-16T09:38:49Z</time>
      </trkpt>
      <trkpt lat="45.23544" lon="0.325">
        <ele>121</ele>
        <time>2025-04-16T09:38:51Z</time>
      </trkpt>
      <trkpt lat="45.23555" lon="0.32508">
        <ele>121</ele>
        <time>2025-04-16T09:38:53Z</time>
      </trkpt>
      <trkpt lat="45.2357" lon="0.32515">
        <ele>122</ele>
        <time>2025-04-16T09:38:56Z</time>
      </trkpt>
      <trkpt lat="45.23587" lon="0.32518">
        <ele>122</ele>
        <time>2025-04-16T09:38:59Z</time>
      </trkpt>
      <trkpt lat="45.23625" lon="0.32519">
        <ele>123</ele>
        <time>2025-04-16T09:39:06Z</time>
      </trkpt>
      <trkpt lat="45.23645" lon="0.32524">
        <ele>123</ele>
        <time>2025-04-16T09:39:10Z</time>
      </trkpt>
      <trkpt lat="45.23659" lon="0.32531">
        <ele>124</ele>
        <time>2025-04-16T09:39:12Z</time>
      </trkpt>
      <trkpt lat="45.23679" lon="0.32545">
        <ele>125</ele>
        <time>2025-04-16T09:39:16Z</time>
      </trkpt>
      <trkpt lat="45.23894" lon="0.32764">
        <ele>123</ele>
        <time>2025-04-16T09:40:03Z</time>
      </trkpt>
      <trkpt lat="45.23917" lon="0.3279">
        <ele>123</ele>
        <time>2025-04-16T09:40:09Z</time>
      </trkpt>
      <trkpt lat="45.23938" lon="0.32817">
        <ele>123</ele>
        <time>2025-04-16T09:40:14Z</time>
      </trkpt>
      <trkpt lat="45.23965" lon="0.32869">
        <ele>123</ele>
        <time>2025-04-16T09:40:22Z</time>
      </trkpt>
      <trkpt lat="45.23974" lon="0.3289">
        <ele>122</ele>
        <time>2025-04-16T09:40:25Z</time>
      </trkpt>
      <trkpt lat="45.23991" lon="0.32938">
        <ele>121</ele>
        <time>2025-04-16T09:40:32Z</time>
      </trkpt>
      <trkpt lat="45.23985" lon="0.32947">
        <ele>120</ele>
        <time>2025-04-16T09:40:33Z</time>
      </trkpt>
      <trkpt lat="45.23984" lon="0.32959">
        <ele>120</ele>
        <time>2025-04-16T09:40:35Z</time>
      </trkpt>
      <trkpt lat="45.23985" lon="0.32965">
        <ele>119</ele>
        <time>2025-04-16T09:40:35Z</time>
      </trkpt>
      <trkpt lat="45.23991" lon="0.32974">
        <ele>119</ele>
        <time>2025-04-16T09:40:37Z</time>
      </trkpt>
      <trkpt lat="45.24" lon="0.32976">
        <ele>120</ele>
        <time>2025-04-16T09:40:39Z</time>
      </trkpt>
      <trkpt lat="45.24004" lon="0.32974">
        <ele>120</ele>
        <time>2025-04-16T09:40:39Z</time>
      </trkpt>
      <trkpt lat="45.24074" lon="0.33169">
        <ele>117</ele>
        <time>2025-04-16T09:41:07Z</time>
      </trkpt>
      <trkpt lat="45.2409" lon="0.33201">
        <ele>115</ele>
        <time>2025-04-16T09:41:12Z</time>
      </trkpt>
      <trkpt lat="45.24111" lon="0.33232">
        <ele>114</ele>
        <time>2025-04-16T09:41:17Z</time>
      </trkpt>
      <trkpt lat="45.24145" lon="0.33269">
        <ele>113</ele>
        <time>2025-04-16T09:41:25Z</time>
      </trkpt>
      <trkpt lat="45.24252" lon="0.33329">
        <ele>107</ele>
        <time>2025-04-16T09:41:45Z</time>
      </trkpt>
      <trkpt lat="45.24254" lon="0.33336">
        <ele>107</ele>
        <time>2025-04-16T09:41:46Z</time>
      </trkpt>
      <trkpt lat="45.24259" lon="0.3334">
        <ele>107</ele>
        <time>2025-04-16T09:41:47Z</time>
      </trkpt>
      <trkpt lat="45.24265" lon="0.33339">
        <ele>106</ele>
        <time>2025-04-16T09:41:48Z</time>
      </trkpt>
      <trkpt lat="45.24281" lon="0.33348">
        <ele>106</ele>
        <time>2025-04-16T09:41:51Z</time>
      </trkpt>
      <trkpt lat="45.24285" lon="0.3335">
        <ele>105</ele>
        <time>2025-04-16T09:41:52Z</time>
      </trkpt>
      <trkpt lat="45.24291" lon="0.33348">
        <ele>105</ele>
        <time>2025-04-16T09:41:53Z</time>
      </trkpt>
      <trkpt lat="45.24294" lon="0.33346">
        <ele>105</ele>
        <time>2025-04-16T09:41:54Z</time>
      </trkpt>
      <trkpt lat="45.24297" lon="0.33338">
        <ele>105</ele>
        <time>2025-04-16T09:41:55Z</time>
      </trkpt>
      <trkpt lat="45.24312" lon="0.33335">
        <ele>105</ele>
        <time>2025-04-16T09:41:57Z</time>
      </trkpt>
      <trkpt lat="45.24332" lon="0.33338">
        <ele>104</ele>
        <time>2025-04-16T09:42:01Z</time>
      </trkpt>
      <trkpt lat="45.24381" lon="0.33355">
        <ele>102</ele>
        <time>2025-04-16T09:42:10Z</time>
      </trkpt>
      <trkpt lat="45.24397" lon="0.33358">
        <ele>102</ele>
        <time>2025-04-16T09:42:13Z</time>
      </trkpt>
      <trkpt lat="45.24466" lon="0.33359">
        <ele>99</ele>
        <time>2025-04-16T09:42:25Z</time>
      </trkpt>
      <trkpt lat="45.24494" lon="0.33371">
        <ele>97</ele>
        <time>2025-04-16T09:42:30Z</time>
      </trkpt>
      <trkpt lat="45.24502" lon="0.33381">
        <ele>97</ele>
        <time>2025-04-16T09:42:32Z</time>
      </trkpt>
      <trkpt lat="45.2451" lon="0.3339">
        <ele>97</ele>
        <time>2025-04-16T09:42:34Z</time>
      </trkpt>
      <trkpt lat="45.24546" lon="0.33466">
        <ele>93</ele>
        <time>2025-04-16T09:42:46Z</time>
      </trkpt>
      <trkpt lat="45.24592" lon="0.33538">
        <ele>85</ele>
        <time>2025-04-16T09:42:58Z</time>
      </trkpt>
      <trkpt lat="45.24662" lon="0.33619">
        <ele>80</ele>
        <time>2025-04-16T09:43:14Z</time>
      </trkpt>
      <trkpt lat="45.24916" lon="0.33556">
        <ele>79</ele>
        <time>2025-04-16T09:44:00Z</time>
      </trkpt>
      <trkpt lat="45.24945" lon="0.33548">
        <ele>78</ele>
        <time>2025-04-16T09:44:05Z</time>
      </trkpt>
      <trkpt lat="45.25038" lon="0.33585">
        <ele>74</ele>
        <time>2025-04-16T09:44:22Z</time>
      </trkpt>
      <trkpt lat="45.25076" lon="0.33593">
        <ele>72</ele>
        <time>2025-04-16T09:44:29Z</time>
      </trkpt>
      <trkpt lat="45.25073" lon="0.33623">
        <ele>71</ele>
        <time>2025-04-16T09:44:33Z</time>
      </trkpt>
      <trkpt lat="45.25077" lon="0.33681">
        <ele>70</ele>
        <time>2025-04-16T09:44:40Z</time>
      </trkpt>
      <trkpt lat="45.24984" lon="0.337">
        <ele>72</ele>
        <time>2025-04-16T09:44:57Z</time>
      </trkpt>
      <trkpt lat="45.24967" lon="0.33703">
        <ele>72</ele>
        <time>2025-04-16T09:45:00Z</time>
      </trkpt>
    </trkseg>
  </trk>
</gpx>